Eltham High School

Historical Weather Data

                  Temp     Hi    Low   Out         Wind        Wind    Hi    Hi   Wind   Heat          THSW                Rain  Solar   Solar Hi Solar         UV    Hi     Heat    Cool    In     In          Wind  Wind    ISS   Arc.
  Date    Time     Out   Temp   Temp   Hum    Dew Speed   Dir   Run Speed   Dir  Chill  Index    THW  Index   Bar    Rain  Rate   Rad.  Energy    Rad.    UV   Dose   UV     D-D     D-D    Temp   Hum     ET   Samp   Tx   Recept  Int.
------------------------------------------------------------------------------------------------------------------------------------------------------------------------------------------------------------------------------------------
 9/08/18 12:30a    5.7    6.2    5.7    93    4.6   0.0   ---  0.00   0.0   ---    5.7    5.7    5.7    3.9  1032.4  0.00   0.0     0     0.00      0     0.0  0.00   0.0   0.264   0.000   25.6    32    0.00   702    1    100.0   30 
 9/08/18  1:00a    5.1    5.7    5.1    93    4.1   0.0   ---  0.00   0.0   ---    5.1    5.1    5.1    3.3  1032.4  0.00   0.0     0     0.00      0     0.0  0.00   0.0   0.275   0.000   25.4    31    0.00   639    1     93.4   30 
 9/08/18  1:30a    4.7    5.1    4.7    93    3.6   0.0   ---  0.00   0.0   ---    4.7    4.7    4.7    2.8  1032.6  0.00   0.0     0     0.00      0     0.0  0.00   0.0   0.285   0.000   25.2    31    0.00   702    1    100.0   30 
 9/08/18  2:00a    4.4    4.7    4.4    93    3.4   0.0   ---  0.00   0.0   ---    4.4    4.4    4.4    2.6  1032.9  0.00   0.0     0     0.00      0     0.0  0.00   0.0   0.291   0.000   24.9    31    0.00   702    1    100.0   30 
 9/08/18  2:30a    4.2    4.4    4.2    94    3.3   0.0   ---  0.00   0.0   ---    4.2    4.2    4.2    2.3  1033.0  0.00   0.0     0     0.00      0     0.0  0.00   0.0   0.295   0.000   24.6    31    0.00   702    1    100.0   30 
 9/08/18  3:00a    3.7    4.2    3.7    93    2.6   0.0   ---  0.00   0.0   ---    3.7    3.7    3.7    1.8  1033.0  0.00   0.0     0     0.00      0     0.0  0.00   0.0   0.306   0.000   24.4    31    0.00   701    1    100.0   30 
 9/08/18  3:30a    3.4    3.7    3.4    94    2.5   0.0   ---  0.00   0.0   ---    3.4    3.4    3.4    1.5  1033.3  0.00   0.0     0     0.00      0     0.0  0.00   0.0   0.311   0.000   24.2    31    0.00   701    1    100.0   30 
 9/08/18  4:00a    3.1    3.4    3.1    94    2.2   0.0   ---  0.00   0.0   ---    3.1    3.1    3.1    1.2  1033.5  0.00   0.0     0     0.00      0     0.0  0.00   0.0   0.318   0.000   24.0    31    0.00   702    1    100.0   30 
 9/08/18  4:30a    2.3    3.1    2.3    94    1.5   0.0   ---  0.00   0.0   ---    2.3    2.3    2.3    0.4  1033.9  0.00   0.0     0     0.00      0     0.0  0.00   0.0   0.333   0.000   23.8    31    0.00   701    1    100.0   30 
 9/08/18  5:00a    1.7    2.3    1.7    94    0.9   0.0   ---  0.00   0.0   ---    1.7    1.7    1.7   -0.2  1034.1  0.25   0.0     0     0.00      0     0.0  0.00   0.0   0.346   0.000   23.5    30    0.00   701    1    100.0   30 
 9/08/18  5:30a    1.1    1.7    1.1    94    0.3   0.0   ---  0.00   0.0   ---    1.1    1.1    1.1   -0.9  1034.7  0.00   0.0     0     0.00      0     0.0  0.00   0.0   0.359   0.000   23.3    30    0.00   697    1    100.0   30 
 9/08/18  6:00a    1.2    1.2    1.1    95    0.5   0.0   ---  0.00   0.0   ---    1.2    1.2    1.2   -0.8  1034.7  0.00   0.0     0     0.00      0     0.0  0.00   0.0   0.356   0.000   23.1    30    0.00   702    1    100.0   30 
 9/08/18  6:30a    1.9    1.9    1.2    95    1.2   0.0   ---  0.00   0.0   ---    1.9    1.9    1.9    0.0  1035.0  0.00   0.0     0     0.00      0     0.0  0.00   0.0   0.341   0.000   23.1    30    0.00   703    1    100.0   30 
 9/08/18  7:00a    2.6    2.6    1.9    95    1.9   0.0   ---  0.00   0.0   ---    2.6    2.6    2.6    0.7  1035.4  0.00   0.0     0     0.00      0     0.0  0.00   0.0   0.328   0.000   22.9    30    0.00   702    1    100.0   30 
 9/08/18  7:30a    3.1    3.1    2.6    95    2.4   0.0   ---  0.00   0.0   ---    3.1    3.1    3.1    1.3  1035.7  0.00   0.0     4     0.17     14     0.0  0.00   0.0   0.317   0.000   23.1    30    0.00   702    1    100.0   30 
 9/08/18  8:00a    3.9    3.9    3.1    96    3.3   0.0   ---  0.00   0.0   ---    3.9    3.9    3.9    2.3  1035.8  0.00   0.0    27     1.16     42     0.0  0.00   0.0   0.301   0.000   23.4    30    0.00   701    1    100.0   30 
 9/08/18  8:30a    4.8    4.8    3.9    96    4.2   0.0     W  0.00   1.6     W    4.8    4.9    4.9    5.2  1036.1  0.00   0.0    63     2.71     84     0.0  0.00   0.0   0.281   0.000   24.0    30    0.00   701    1    100.0   30 
 9/08/18  9:00a    5.9    5.9    4.8    95    5.2   0.0   ---  0.00   0.0   ---    5.9    6.0    6.0    7.2  1036.2  0.00   0.0   101     4.34    125     0.0  0.00   0.0   0.258   0.000   24.7    31    0.03   700    1    100.0   30 
 9/08/18  9:30a    7.8    7.8    6.0    92    6.6   0.0   ---  0.00   0.0   ---    7.8    7.9    7.9   10.2  1036.3  0.00   0.0   159     6.84    216     0.0  0.00   0.0   0.219   0.000   25.6    31    0.00   673    1     98.4   30 
 9/08/18 10:00a    9.9    9.9    7.8    73    5.3   1.6    NW  0.80  17.7   WNW    9.9    9.8    9.8   12.7  1036.4  0.00   0.0   206     8.86    258     0.2  0.04   0.6   0.175   0.000   26.2    31    0.08   698    1    100.0   30 
 9/08/18 10:30a   10.6   10.6    9.9    67    4.7   3.2     N  1.61  17.7   NNE   10.6   10.3   10.3   13.8  1036.5  0.00   0.0   259    11.14    302     0.7  0.15   0.9   0.161   0.000   26.9    31    0.00   701    1    100.0   30 
 9/08/18 11:00a   11.4   11.4   10.6    65    5.0   6.4     N  3.22  27.4    NE   11.0   10.9   10.4   15.0  1036.2  0.00   0.0   363    15.61    490     1.2  0.26   1.7   0.145   0.000   27.3    31    0.18   701    1    100.0   30 
 9/08/18 11:30a   11.6   11.7   11.3    62    4.6   8.0   NNE  4.02  30.6   NNW   10.9   11.1   10.3   14.8  1035.8  0.00   0.0   365    15.70    490     1.3  0.28   1.5   0.140   0.000   27.8    30    0.00   696    1    100.0   30 
 9/08/18 12:00p   11.7   11.7   11.4    62    4.6   9.7   NNE  4.83  27.4     N   10.7   11.1   10.1   13.6  1035.4  0.00   0.0   284    12.21    452     1.1  0.24   1.3   0.139   0.000   28.3    30    0.20   693    1    100.0   30 
 9/08/18 12:30p   12.0   12.0   11.7    60    4.5   8.0   NNE  4.02  27.4   NNE   11.3   11.3   10.6   14.4  1035.0  0.00   0.0   309    13.29    327     1.2  0.26   1.2   0.132   0.000   28.7    30    0.00   700    1    100.0   30 
 9/08/18  1:00p   12.2   12.3   12.0    60    4.6   6.4     N  3.22  32.2   NNE   11.9   11.5   11.0   14.9  1034.4  0.00   0.0   310    13.33    338     1.1  0.24   1.3   0.128   0.000   29.3    29    0.18   698    1    100.0   30 
 9/08/18  1:30p   12.8   12.8   12.2    59    5.0   4.8   NNE  2.41  25.7   NNE   12.8   12.1   12.0   16.3  1033.9  0.00   0.0   330    14.19    411     1.2  0.26   1.8   0.115   0.000   29.5    29    0.00   677    1     99.0   30 
 9/08/18  2:00p   12.7   12.9   12.7    58    4.6   6.4     N  3.22  25.7   NNE   12.4   11.9   11.5   16.0  1033.8  0.00   0.0   342    14.71    647     1.1  0.24   1.5   0.118   0.000   29.9    29    0.20   665    1     97.2   30 
 9/08/18  2:30p   12.7   12.7   12.6    59    4.9   4.8     N  2.41  27.4   NNE   12.7   11.9   11.8   15.3  1033.3  0.00   0.0   245    10.54    350     0.8  0.17   1.1   0.118   0.000   29.9    28    0.00   693    1    100.0   30 
 9/08/18  3:00p   12.6   12.7   12.5    61    5.2   6.4   NNE  3.22  20.9    NE   12.3   11.9   11.5   14.4  1033.0  0.00   0.0   201     8.64    278     0.5  0.11   0.8   0.120   0.000   29.8    27    0.15   693    1    100.0   30 
 9/08/18  3:30p   12.6   12.7   12.6    61    5.2   4.8   NNE  2.41  22.5   NNE   12.6   11.9   11.8   13.8  1032.9  0.00   0.0   144     6.19    174     0.0  0.00   0.0   0.120   0.000   29.6    27    0.00   698    1    100.0   30 
 9/08/18  4:00p   12.4   12.6   12.3    62    5.3   4.8     N  2.41  22.5    NE   12.4   11.8   11.7   12.3  1032.8  0.00   0.0    80     3.44    142     0.0  0.00   0.0   0.124   0.000   29.6    27    0.08   695    1    100.0   30 
 9/08/18  4:30p   12.2   12.4   12.2    62    5.1   6.4     N  3.22  25.7   NNE   11.9   11.6   11.2   10.0  1032.1  0.00   0.0    48     2.06     69     0.0  0.00   0.0   0.127   0.000   29.3    27    0.00   671    1     98.1   30 
 9/08/18  5:00p   12.2   12.4   12.2    64    5.6   3.2   NNE  1.61  17.7    NE   12.2   11.6   11.6   10.9  1032.0  0.00   0.0    88     3.78    120     0.0  0.00   0.0   0.128   0.000   28.5    27    0.05   698    1    100.0   30 
 9/08/18  5:30p   11.4   12.2   11.4    67    5.5   1.6   NNE  0.80  12.9     N   11.4   10.9   10.9    9.4  1031.8  0.00   0.0    21     0.90     42     0.0  0.00   0.0   0.145   0.000   28.2    28    0.00   692    1    100.0   30 
 9/08/18  6:00p   10.9   11.4   10.9    68    5.2   1.6   NNE  0.80  14.5   NNE   10.9   10.6   10.6    8.8  1031.8  0.00   0.0     1     0.04      7     0.0  0.00   0.0   0.155   0.000   28.2    28    0.03   691    1    100.0   30 
 9/08/18  6:30p   10.8   10.9   10.8    68    5.1   1.6     N  0.80  14.5     N   10.8   10.4   10.4    8.7  1032.0  0.00   0.0     0     0.00      0     0.0  0.00   0.0   0.157   0.000   27.9    28    0.00   694    1    100.0   30 
 9/08/18  7:00p   10.6   10.8   10.6    69    5.2   0.0   NNE  0.00  14.5    NE   10.6   10.3   10.3    8.5  1032.0  0.00   0.0     0     0.00      0     0.0  0.00   0.0   0.161   0.000   27.8    28    0.03   697    1    100.0   30 
 9/08/18  7:30p   10.8   10.8   10.5    69    5.4   1.6   NNE  0.80  16.1   NNE   10.8   10.5   10.5    8.7  1031.8  0.00   0.0     0     0.00      0     0.0  0.00   0.0   0.156   0.000   27.4    28    0.00   700    1    100.0   30 
 9/08/18  8:00p   10.8   10.8   10.8    69    5.4   3.2   NNE  1.61  17.7    NE   10.8   10.5   10.5    8.7  1031.8  0.00   0.0     0     0.00      0     0.0  0.00   0.0   0.156   0.000   27.2    28    0.03   697    1    100.0   30 
 9/08/18  8:30p   10.8   11.0   10.8    68    5.2   3.2   NNE  1.61  16.1   NNE   10.8   10.5   10.5    8.7  1031.8  0.00   0.0     0     0.00      0     0.0  0.00   0.0   0.156   0.000   26.9    28    0.00   700    1    100.0   30 
 9/08/18  9:00p   10.8   10.8   10.7    68    5.2   3.2     N  1.61  14.5     N   10.8   10.5   10.5    8.7  1031.7  0.00   0.0     0     0.00      0     0.0  0.00   0.0   0.156   0.000   26.8    28    0.03   700    1    100.0   30 
 9/08/18  9:30p   10.8   10.8   10.8    69    5.3   4.8   NNE  2.41  16.1    NE   10.7   10.4   10.3    8.5  1031.7  0.00   0.0     0     0.00      0     0.0  0.00   0.0   0.157   0.000   26.5    28    0.00   700    1    100.0   30 
 9/08/18 10:00p   10.8   10.8   10.7    69    5.4   3.2   NNE  1.61  16.1    NE   10.8   10.5   10.5    8.7  1031.9  0.00   0.0     0     0.00      0     0.0  0.00   0.0   0.156   0.000   26.4    28    0.03   671    1     98.1   30 
 9/08/18 10:30p   10.7   10.8   10.7    70    5.5   3.2     N  1.61  16.1   NNE   10.7   10.4   10.4    8.7  1031.6  0.00   0.0     0     0.00      0     0.0  0.00   0.0   0.159   0.000   26.2    28    0.00   701    1    100.0   30 
 9/08/18 11:00p   10.8   10.8   10.7    70    5.5   4.8     N  2.41  17.7    NE   10.7   10.5   10.4    8.6  1031.3  0.00   0.0     0     0.00      0     0.0  0.00   0.0   0.157   0.000   26.1    28    0.03   698    1    100.0   30 
 9/08/18 11:30p   10.9   10.9   10.8    70    5.7   6.4   NNE  3.22  25.7     N   10.4   10.6   10.0    8.2  1031.1  0.00   0.0     0     0.00      0     0.0  0.00   0.0   0.154   0.000   26.0    28    0.00   691    1    100.0   30 
10/08/18 12:00a   11.1   11.2   10.9    69    5.6   8.0   NNE  4.02  20.9    NE   10.3   10.8    9.9    8.2  1030.7  0.00   0.0     0     0.00      0     0.0  0.00   0.0   0.150   0.000   25.9    28    0.05   698    1    100.0   30 
10/08/18 12:30a   11.4   11.4   11.1    69    5.9   9.7   NNE  4.83  29.0    NE   10.3   11.0    9.9    8.2  1029.8  0.00   0.0     0     0.00      0     0.0  0.00   0.0   0.145   0.000   25.8    28    0.00   698    1    100.0   30 
10/08/18  1:00a   11.7   11.7   11.4    68    6.0   8.0   NNE  4.02  27.4   NNE   11.1   11.3   10.5    8.7  1029.5  0.00   0.0     0     0.00      0     0.0  0.00   0.0   0.138   0.000   25.6    28    0.05   694    1    100.0   30 
10/08/18  1:30a   11.9   11.9   11.7    67    6.0   6.4   NNE  3.22  27.4    NE   11.6   11.4   11.0    9.2  1028.9  0.00   0.0     0     0.00      0     0.0  0.00   0.0   0.133   0.000   25.6    28    0.00   699    1    100.0   30 
10/08/18  2:00a   12.2   12.2   11.9    67    6.2   4.8   NNE  2.41  22.5    NE   12.2   11.7   11.6    9.8  1028.6  0.00   0.0     0     0.00      0     0.0  0.00   0.0   0.128   0.000   25.6    28    0.05   701    1    100.0   30 
10/08/18  2:30a   12.5   12.6   12.2    65    6.1   6.4   NNE  3.22  22.5     N   12.3   11.9   11.5    9.7  1028.6  0.00   0.0     0     0.00      0     0.0  0.00   0.0   0.122   0.000   25.5    28    0.00   700    1    100.0   30 
10/08/18  3:00a   12.6   12.6   12.5    65    6.1   4.8   NNE  2.41  25.7     N   12.6   12.0   11.9   10.2  1028.0  0.00   0.0     0     0.00      0     0.0  0.00   0.0   0.120   0.000   25.5    28    0.05   697    1    100.0   30 
10/08/18  3:30a   12.9   12.9   12.6    64    6.3   6.4   NNE  3.22  27.4   NNE   12.8   12.3   12.0   10.2  1027.5  0.00   0.0     0     0.00      0     0.0  0.00   0.0   0.112   0.000   25.5    29    0.00   695    1    100.0   30 
10/08/18  4:00a   12.8   12.9   12.8    64    6.1   6.4   NNE  3.22  32.2   ENE   12.6   12.2   11.8   10.1  1027.0  0.00   0.0     0     0.00      0     0.0  0.00   0.0   0.116   0.000   25.4    29    0.05   647    1     94.6   30 
10/08/18  4:30a   12.8   12.9   12.8    64    6.2  11.3   NNE  5.63  35.4     N   11.8   12.2   11.1    9.4  1026.5  0.00   0.0     0     0.00      0     0.0  0.00   0.0   0.115   0.000   25.4    29    0.00   700    1    100.0   30 
10/08/18  5:00a   13.1   13.1   12.8    63    6.2  11.3   NNE  5.63  37.0     N   12.1   12.4   11.4    9.7  1025.9  0.00   0.0     0     0.00      0     0.0  0.00   0.0   0.110   0.000   25.4    29    0.05   677    1     99.0   30 
10/08/18  5:30a   12.9   13.2   12.9    63    6.1  14.5   NNE  7.24  38.6    NE   11.6   12.3   10.6    9.0  1025.9  0.00   0.0     0     0.00      0     0.0  0.00   0.0   0.112   0.000   25.4    29    0.00   694    1    100.0   30 
10/08/18  6:00a   13.1   13.1   12.9    63    6.2  14.5   NNE  7.24  37.0    NE   11.7   12.4   10.8    9.2  1026.5  0.00   0.0     0     0.00      0     0.0  0.00   0.0   0.110   0.000   25.3    29    0.08   698    1    100.0   30 
10/08/18  6:30a   13.3   13.3   13.1    62    6.2   9.7   NNE  4.83  32.2   NNE   12.7   12.7   11.9   10.2  1026.4  0.00   0.0     0     0.00      0     0.0  0.00   0.0   0.104   0.000   25.3    29    0.00   696    1    100.0   30 
10/08/18  7:00a   13.6   13.7   13.3    60    6.0   8.0   NNE  4.02  30.6   NNE   13.3   12.9   12.3   10.5  1026.3  0.00   0.0     0     0.00      0     0.0  0.00   0.0   0.098   0.000   25.3    29    0.05   692    1    100.0   30 
10/08/18  7:30a   13.8   13.8   13.6    59    5.9  11.3   NNE  5.63  32.2   NNE   13.0   13.0   12.0   10.3  1026.5  0.00   0.0     5     0.22     14     0.0  0.00   0.0   0.095   0.000   25.4    29    0.00   695    1    100.0   30 
10/08/18  8:00a   13.9   13.9   13.6    57    5.5   6.4   NNE  3.22  24.1     N   13.9   13.1   12.7   11.3  1027.0  0.00   0.0    29     1.25     47     0.0  0.00   0.0   0.093   0.000   25.7    29    0.05   701    1    100.0   30 
10/08/18  8:30a   14.2   14.4   13.9    56    5.6   8.0   NNE  4.02  29.0    NE   13.9   13.4   12.9   13.3  1026.9  0.00   0.0    68     2.92    114     0.0  0.00   0.0   0.086   0.000   26.2    29    0.00   695    1    100.0   30 
10/08/18  9:00a   15.2   15.2   14.2    53    5.7  11.3   NNE  5.63  37.0     N   14.7   14.2   13.4   18.5  1026.6  0.00   0.0   317    13.63    408     0.1  0.02   0.5   0.065   0.000   26.8    29    0.15   678    1     99.1   30 
10/08/18  9:30a   15.8   15.8   15.2    51    5.7  11.3   NNE  5.63  33.8     N   15.4   14.8   14.1   21.4  1026.5  0.00   0.0   465    20.00    531     0.6  0.13   0.8   0.052   0.000   27.4    29    0.00   687    1    100.0   30 
10/08/18 10:00a   16.7   16.7   15.9    49    5.9   9.7   NNE  4.83  41.8     N   16.7   15.6   15.1   22.5  1026.1  0.00   0.0   513    22.06    622     1.0  0.21   1.2   0.035   0.000   27.8    29    0.30   695    1    100.0   30 
10/08/18 10:30a   16.7   16.9   16.7    47    5.3  12.9   NNE  6.44  40.2     N   16.3   15.5   14.4   19.9  1025.6  0.00   0.0   471    20.26    494     1.3  0.28   1.4   0.035   0.000   28.1    28    0.00   690    1    100.0   30 
10/08/18 11:00a   17.2   17.2   16.7    47    5.8  12.9   NNE  6.44  38.6     N   16.9   16.0   15.0   20.7  1024.9  0.00   0.0   516    22.19    536     1.6  0.34   1.8   0.024   0.000   28.3    27    0.36   698    1    100.0   30 
10/08/18 11:30a   17.3   17.3   17.0    46    5.5  16.1   NNE  8.05  45.1   NNE   16.8   16.1   14.6   20.1  1024.4  0.00   0.0   554    23.83    568     1.9  0.41   2.0   0.022   0.000   28.9    27    0.00   692    1    100.0   30 
10/08/18 12:00p   18.7   18.7   17.3    42    5.5  11.3   NNE  5.63  40.2     N   18.7   17.3   17.0   23.2  1023.9  0.00   0.0   578    24.86    589     2.1  0.45   2.2   0.000   0.007   29.6    27    0.41   675    1     98.7   30 
10/08/18 12:30p   18.7   18.9   18.7    39    4.4  16.1     N  8.05  43.5   NNW   18.6   17.2   15.8   21.5  1023.3  0.00   0.0   590    25.37    594     2.2  0.47   2.2   0.000   0.007   29.9    27    0.00   683    1     99.9   30 
10/08/18  1:00p   18.8   18.9   18.6    40    4.9  12.9     N  6.44  41.8   NNW   18.8   17.4   16.6   22.8  1022.5  0.00   0.0   586    25.20    591     2.2  0.47   2.2   0.000   0.010   30.2    26    0.46   683    1     99.9   30 
10/08/18  1:30p   18.3   18.8   18.3    41    4.8  17.7   NNE  8.85  61.2   NNE   17.9   16.9   15.3   20.9  1021.7  0.00   0.0   567    24.38    578     2.0  0.43   2.1   0.001   0.000   30.3    26    0.00   698    1    100.0   30 
10/08/18  2:00p   18.4   18.6   18.3    42    5.3  16.1   NNE  8.05  49.9   NNE   18.3   17.1   15.7   21.6  1021.4  0.00   0.0   527    22.66    550     1.8  0.39   1.9   0.000   0.002   30.3    26    0.43   699    1    100.0   30 
10/08/18  2:30p   18.8   18.8   18.4    43    5.9  14.5     N  7.24  48.3     N   18.8   17.5   16.4   22.3  1020.8  0.00   0.0   473    20.34    501     1.5  0.32   1.6   0.000   0.009   30.1    25    0.00   692    1    100.0   30 
10/08/18  3:00p   18.8   19.0   18.7    45    6.6  12.9   NNE  6.44  37.0   NNE   18.8   17.7   16.8   22.8  1020.2  0.00   0.0   411    17.68    450     1.1  0.24   1.3   0.000   0.010   30.1    26    0.36   693    1    100.0   30 
10/08/18  3:30p   18.9   18.9   18.8    45    6.7  12.9   NNE  6.44  35.4    NE   18.9   17.7   16.9   22.4  1019.6  0.00   0.0   348    14.97    385     0.8  0.17   1.0   0.000   0.012   29.6    26    0.00   692    1    100.0   30 
10/08/18  4:00p   19.2   19.2   18.9    41    5.6  11.3   NNE  5.63  30.6   NNE   19.2   17.9   17.6   22.1  1019.3  0.00   0.0   264    11.35    309     0.4  0.09   0.6   0.000   0.019   28.7    26    0.28   675    1     98.7   30 
10/08/18  4:30p   19.1   19.3   19.1    40    5.1   9.7   NNE  4.83  35.4   NNE   19.1   17.6   17.5   17.3  1018.8  0.00   0.0   158     6.79    230     0.0  0.00   0.0   0.000   0.015   28.6    26    0.00   660    1     96.5   30 
10/08/18  5:00p   18.9   19.1   18.8    39    4.6   9.7   NNE  4.83  33.8   NNE   18.9   17.4   17.2   15.9  1018.5  0.00   0.0    63     2.71     69     0.0  0.00   0.0   0.000   0.012   28.9    27    0.15   668    1     97.7   30 
10/08/18  5:30p   18.5   18.9   18.5    39    4.3   8.0   NNE  4.02  29.0   NNE   18.5   17.0   16.9   15.2  1018.3  0.00   0.0    26     1.12     49     0.0  0.00   0.0   0.000   0.003   29.1    27    0.00   686    1    100.0   30 
10/08/18  6:00p   18.2   18.5   18.2    39    4.0   9.7   NNE  4.83  32.2     N   18.2   16.7   16.4   14.3  1017.8  0.00   0.0     0     0.00      5     0.0  0.00   0.0   0.003   0.000   28.9    26    0.08   680    1     99.4   30 
10/08/18  6:30p   18.1   18.2   18.1    38    3.5   8.0   NNE  4.02  29.0   NNW   18.1   16.4   16.3   14.2  1018.0  0.00   0.0     0     0.00      0     0.0  0.00   0.0   0.006   0.000   28.7    26    0.00   669    1     97.8   30 
10/08/18  7:00p   18.0   18.1   18.0    38    3.5   6.4   NNE  3.22  32.2     N   18.0   16.4   16.3   14.2  1018.0  0.00   0.0     0     0.00      0     0.0  0.00   0.0   0.007   0.000   28.6    26    0.10   694    1    100.0   30 
10/08/18  7:30p   17.8   18.0   17.8    38    3.3   8.0   NNE  4.02  27.4   NNE   17.8   16.2   16.1   13.9  1017.7  0.00   0.0     0     0.00      0     0.0  0.00   0.0   0.010   0.000   28.5    26    0.00   693    1    100.0   30 
10/08/18  8:00p   17.8   17.9   17.8    37    2.9   6.4   NNE  3.22  32.2    NE   17.8   16.1   16.0   13.9  1017.7  0.00   0.0     0     0.00      0     0.0  0.00   0.0   0.012   0.000   28.3    25    0.10   693    1    100.0   30 
10/08/18  8:30p   18.1   18.1   17.7    35    2.3   6.4   NNE  3.22  30.6     N   18.1   16.3   16.2   14.1  1017.3  0.00   0.0     0     0.00      0     0.0  0.00   0.0   0.006   0.000   28.2    25    0.00   669    1     97.8   30 
10/08/18  9:00p   18.6   18.6   18.1    33    2.0   8.0   NNE  4.02  37.0   NNE   18.6   16.7   16.6   14.4  1017.5  0.00   0.0     0     0.00      0     0.0  0.00   0.0   0.000   0.005   28.1    25    0.10   695    1    100.0   30 
10/08/18  9:30p   18.8   18.8   18.5    31    1.3   9.7   NNE  4.83  35.4     N   18.8   16.8   16.6   14.4  1017.2  0.00   0.0     0     0.00      0     0.0  0.00   0.0   0.000   0.009   27.9    25    0.00   693    1    100.0   30 
10/08/18 10:00p   19.1   19.1   18.8    31    1.5   9.7     N  4.83  35.4    NE   19.1   17.1   17.0   14.8  1017.3  0.00   0.0     0     0.00      0     0.0  0.00   0.0   0.000   0.015   27.9    24    0.13   634    1     92.7   30 
10/08/18 10:30p   19.1   19.2   19.1    30    1.1  11.3   NNE  5.63  37.0   NNE   19.1   17.1   16.8   14.7  1017.0  0.00   0.0     0     0.00      0     0.0  0.00   0.0   0.000   0.016   27.8    24    0.00   682    1     99.7   30 
10/08/18 11:00p   18.9   19.2   18.9    31    1.4   9.7   NNE  4.83  35.4   NNE   18.9   16.9   16.8   14.6  1016.7  0.00   0.0     0     0.00      0     0.0  0.00   0.0   0.000   0.012   27.7    24    0.13   673    1     98.4   30 
10/08/18 11:30p   18.7   18.9   18.6    31    1.2   9.7   NNE  4.83  45.1     N   18.7   16.7   16.5   14.3  1016.1  0.00   0.0     0     0.00      0     0.0  0.00   0.0   0.000   0.007   27.7    24    0.00   671    1     98.1   30 
11/08/18 12:00a   18.7   18.7   18.6    31    1.2  11.3     N  5.63  32.2    NE   18.7   16.7   16.4   14.2  1015.5  0.00   0.0     0     0.00      0     0.0  0.00   0.0   0.000   0.007   27.7    24    0.13   636    1     93.0   30 
11/08/18 12:30a   18.6   18.7   18.4    30    0.7   8.0     N  4.02  29.0    NE   18.6   16.6   16.5   14.3  1015.3  0.00   0.0     0     0.00      0     0.0  0.00   0.0   0.000   0.006   27.7    24    0.00   674    1     98.5   30 
11/08/18  1:00a   18.6   18.6   18.6    30    0.6   8.0     N  4.02  33.8     N   18.6   16.5   16.4   14.2  1015.4  0.00   0.0     0     0.00      0     0.0  0.00   0.0   0.000   0.005   27.6    24    0.13   668    1     97.7   30 
11/08/18  1:30a   16.8   18.6   16.8    37    2.0   3.2   WSW  1.61  24.1   WNW   16.8   15.1   15.1   12.9  1016.8  0.00   0.0     0     0.00      0     0.0  0.00   0.0   0.032   0.000   27.6    24    0.00   672    1     98.2   30 
11/08/18  2:00a   15.3   16.8   15.3    43    2.8   1.6   NNW  0.80  24.1     N   15.3   13.9   13.9   11.8  1017.5  0.00   0.0     0     0.00      0     0.0  0.00   0.0   0.063   0.000   27.6    24    0.08   673    1     98.4   30 
11/08/18  2:30a   11.4   15.3   11.4    77    7.6   1.6   WSW  0.80  22.5     W   11.4   11.2   11.2    9.3  1017.8  0.00   0.0     0     0.00      0     0.0  0.00   0.0   0.144   0.000   27.4    24    0.00   700    1    100.0   30 
11/08/18  3:00a   10.8   11.4   10.8    81    7.6   0.0   ---  0.00   0.0   ---   10.8   10.7   10.7    8.8  1017.7  0.00   0.0     0     0.00      0     0.0  0.00   0.0   0.157   0.000   27.3    24    0.03   696    1    100.0   30 
11/08/18  3:30a   10.6   10.8   10.6    82    7.7   0.0   ---  0.00   0.0   ---   10.6   10.6   10.6    8.7  1017.4  0.00   0.0     0     0.00      0     0.0  0.00   0.0   0.161   0.000   27.2    25    0.00   697    1    100.0   30 
11/08/18  4:00a   10.6   10.6   10.6    83    7.8   0.0   ---  0.00   0.0   ---   10.6   10.6   10.6    8.7  1017.1  0.00   0.0     0     0.00      0     0.0  0.00   0.0   0.162   0.000   27.1    25    0.00   700    1    100.0   30 
11/08/18  4:30a   10.6   10.6   10.6    84    8.0   0.0   ---  0.00   0.0   ---   10.6   10.6   10.6    8.7  1016.5  0.00   0.0     0     0.00      0     0.0  0.00   0.0   0.162   0.000   27.1    25    0.00   698    1    100.0   30 
11/08/18  5:00a   10.4   10.6   10.4    85    8.0   0.0   ---  0.00   0.0   ---   10.4   10.4   10.4    8.6  1016.0  0.00   0.0     0     0.00      0     0.0  0.00   0.0   0.164   0.000   26.9    26    0.00   702    1    100.0   30 
11/08/18  5:30a   10.2   10.4   10.2    87    8.2   0.0   ---  0.00   0.0   ---   10.2   10.3   10.3    8.4  1015.9  0.25   0.0     0     0.00      0     0.0  0.00   0.0   0.169   0.000   26.8    26    0.00   700    1    100.0   30 
11/08/18  6:00a    9.9   10.2    9.9    89    8.2   0.0   ---  0.00   0.0   ---    9.9   10.1   10.1    8.2  1016.0  0.25   0.0     0     0.00      0     0.0  0.00   0.0   0.175   0.000   26.7    26    0.00   699    1    100.0   30 
11/08/18  6:30a    9.7    9.9    9.7    90    8.1   0.0   ---  0.00   0.0   ---    9.7    9.8    9.8    7.9  1016.1  0.76   2.5     0     0.00      0     0.0  0.00   0.0   0.181   0.000   26.6    26    0.00   700    1    100.0   30 
11/08/18  7:00a    9.6    9.7    9.6    91    8.2   0.0   ---  0.00   0.0   ---    9.6    9.7    9.7    7.8  1016.1  0.51   1.3     0     0.00      0     0.0  0.00   0.0   0.183   0.000   26.5    27    0.00   699    1    100.0   30 
11/08/18  7:30a    9.5    9.6    9.5    92    8.3   0.0   WSW  0.00   6.4   WSW    9.5    9.7    9.7    7.8  1017.4  1.02   2.8     0     0.00      0     0.0  0.00   0.0   0.184   0.000   26.4    27    0.00   700    1    100.0   30 
11/08/18  8:00a    9.1    9.5    9.1    92    7.8   0.0   WSW  0.00  17.7   WSW    9.1    9.2    9.2    7.3  1018.7  4.32  55.9     1     0.04      5     0.0  0.00   0.0   0.193   0.000   26.3    27    0.00   702    1    100.0   30 
11/08/18  8:30a    8.4    9.1    8.4    92    7.2   1.6   WSW  0.80  16.1   NNW    8.4    8.5    8.5    7.7  1019.3  2.03  20.6    15     0.65     28     0.0  0.00   0.0   0.207   0.000   26.2    28    0.00   659    1     96.3   30 
11/08/18  9:00a    8.6    8.6    8.3    93    7.5   0.0   ---  0.00   0.0   ---    8.6    8.7    8.7    8.7  1019.8  0.25   1.5    47     2.02     81     0.0  0.00   0.0   0.204   0.000   26.1    28    0.03   696    1    100.0   30 
11/08/18  9:30a    8.6    8.6    8.6    93    7.5   0.0   WSW  0.00   1.6   WSW    8.6    8.7    8.7    9.1  1020.1  0.25   0.0    67     2.88     88     0.0  0.00   0.0   0.204   0.000   26.1    28    0.00   700    1    100.0   30 
11/08/18 10:00a    8.6    8.6    8.5    93    7.5   0.0   ---  0.00   0.0   ---    8.6    8.7    8.7    9.6  1019.8  0.00   0.0    97     4.17    149     0.0  0.00   0.0   0.204   0.000   26.1    28    0.03   700    1    100.0   30 
11/08/18 10:30a    9.2    9.2    8.6    92    7.9   0.0     W  0.00   8.0     W    9.2    9.3    9.3   11.9  1020.1  0.00   0.0   199     8.56    469     0.3  0.06   0.9   0.191   0.000   26.1    28    0.00   699    1    100.0   30 
11/08/18 11:00a    9.9    9.9    9.2    87    7.8   0.0   WNW  0.00  11.3   WNW    9.9   10.0   10.0   13.9  1020.2  0.00   0.0   295    12.69    461     0.7  0.15   1.0   0.176   0.000   26.2    28    0.13   700    1    100.0   30 
11/08/18 11:30a   10.8   10.8    9.9    78    7.1   0.0    NW  0.00   9.7    NW   10.8   10.7   10.7   15.2  1019.9  0.00   0.0   348    14.97    441     0.9  0.19   1.1   0.156   0.000   26.3    28    0.00   671    1     98.1   30 
11/08/18 12:00p   10.9   11.2   10.8    77    7.1   0.0   ---  0.00   0.0   ---   10.9   10.8   10.8   12.2  1019.9  0.00   0.0   147     6.32    258     0.2  0.04   0.8   0.154   0.000   26.4    28    0.13   692    1    100.0   30 
11/08/18 12:30p   11.3   11.3   10.9    75    7.0   0.0    NW  0.00   6.4    NW   11.3   11.1   11.1   12.4  1019.9  0.00   0.0   140     6.02    211     0.2  0.04   0.6   0.147   0.000   26.4    28    0.00   700    1    100.0   30 
11/08/18  1:00p   11.6   11.6   11.3    73    6.9   0.0     N  0.00  12.9     N   11.6   11.2   11.2   12.6  1019.5  0.00   0.0   141     6.06    190     0.2  0.04   0.6   0.141   0.000   26.5    29    0.08   702    1    100.0   30 
11/08/18  1:30p   10.2   11.6   10.2    78    6.6   1.6   NNW  0.80  14.5   NNE   10.2   10.2   10.2   11.1  1019.5  1.27  46.5   110     4.73    397     0.1  0.02   1.1   0.169   0.000   26.5    29    0.00   698    1    100.0   30 
11/08/18  2:00p   11.7   11.7   10.2    78    8.0   0.0     N  0.00  12.9     N   11.7   11.5   11.5   17.6  1019.3  0.00   0.0   486    20.90    782     1.2  0.26   1.7   0.138   0.000   26.5    29    0.15   693    1    100.0   30 
11/08/18  2:30p   11.1   11.8   11.1    78    7.4   0.0     N  0.00   8.0     N   11.1   10.9   10.9   13.1  1019.3  1.52  38.6   165     7.10    441     0.2  0.04   0.8   0.152   0.000   26.5    29    0.00   676    1     98.8   30 
11/08/18  3:00p   10.9   11.1   10.8    87    8.8   0.0   ---  0.00   0.0   ---   10.9   10.9   10.9   11.6  1019.2  0.25   2.3    78     3.35    111     0.0  0.00   0.0   0.155   0.000   26.6    29    0.08   701    1    100.0   30 
11/08/18  3:30p   10.9   11.2   10.7    89    9.2   0.0     N  0.00  11.3     N   10.9   11.1   11.1   12.8  1019.2  0.00   0.0   127     5.46    264     0.0  0.00   0.0   0.154   0.000   26.5    29    0.00   702    1    100.0   30 
11/08/18  4:00p   10.8   10.9   10.4    70    5.5   0.0   NNW  0.00   8.0   NNW   10.8   10.5   10.5   11.8  1019.4  0.00   0.0   123     5.29    153     0.0  0.00   0.0   0.157   0.000   26.5    29    0.05   702    1    100.0   30 
11/08/18  4:30p   10.8   10.9   10.7    67    4.9   1.6   NNW  0.80  20.9   WNW   10.8   10.4   10.4    9.1  1020.2  0.00   0.0    54     2.32    113     0.0  0.00   0.0   0.156   0.000   26.5    29    0.00   701    1    100.0   30 
11/08/18  5:00p    9.6   10.9    9.6    76    5.5   1.6     W  0.80  14.5     W    9.6    9.4    9.4    8.3  1021.1  0.00   0.0    67     2.88    128     0.0  0.00   0.0   0.183   0.000   26.4    29    0.05   701    1    100.0   30 
11/08/18  5:30p    8.6    9.5    8.6    83    5.8   0.0     S  0.00  11.3     S    8.6    8.5    8.5    6.7  1021.5  0.00   0.0    13     0.56     26     0.0  0.00   0.0   0.204   0.000   26.2    29    0.00   701    1    100.0   30 
11/08/18  6:00p    8.3    8.6    8.3    85    5.9   0.0   ---  0.00   0.0   ---    8.3    8.3    8.3    6.3  1022.0  0.00   0.0     0     0.00      0     0.0  0.00   0.0   0.209   0.000   26.1    29    0.00   701    1    100.0   30 
11/08/18  6:30p    8.2    8.3    8.2    87    6.2   0.0   WSW  0.00  17.7   WSW    8.2    8.3    8.3    6.4  1023.1  0.25   0.0     0     0.00      0     0.0  0.00   0.0   0.211   0.000   25.9    29    0.00   675    1     98.7   30 
11/08/18  7:00p    7.4    8.2    7.4    87    5.4   1.6   WSW  0.80  14.5    SW    7.4    7.4    7.4    5.5  1023.1  2.03  19.1     0     0.00      0     0.0  0.00   0.0   0.227   0.000   25.8    30    0.00   701    1    100.0   30 
11/08/18  7:30p    7.2    7.4    7.2    89    5.5   0.0   NNW  0.00   3.2   NNW    7.2    7.3    7.3    5.3  1023.4  0.00   0.0     0     0.00      0     0.0  0.00   0.0   0.231   0.000   25.7    30    0.00   656    1     95.9   30 
11/08/18  8:00p    7.1    7.3    7.1    87    5.1   0.0   NNW  0.00  11.3   NNW    7.1    7.1    7.1    5.2  1024.1  0.00   0.0     0     0.00      0     0.0  0.00   0.0   0.234   0.000   25.6    30    0.00   702    1    100.0   30 
11/08/18  8:30p    6.8    7.1    6.8    88    5.0   0.0   ---  0.00   0.0   ---    6.8    6.8    6.8    4.8  1024.5  0.00   0.0     0     0.00      0     0.0  0.00   0.0   0.240   0.000   25.5    30    0.00   698    1    100.0   30 
11/08/18  9:00p    6.5    6.8    6.5    90    5.0   0.0   ---  0.00   0.0   ---    6.5    6.6    6.6    4.6  1025.1  0.00   0.0     0     0.00      0     0.0  0.00   0.0   0.247   0.000   25.3    30    0.00   702    1    100.0   30 
11/08/18  9:30p    6.6    6.6    6.5    90    5.0   0.0   NNW  0.00   3.2   NNW    6.6    6.6    6.6    4.7  1025.6  0.00   0.0     0     0.00      0     0.0  0.00   0.0   0.245   0.000   25.2    30    0.00   700    1    100.0   30 
11/08/18 10:00p    6.6    6.6    6.5    87    4.6   0.0   WSW  0.00   8.0   WSW    6.6    6.6    6.6    4.6  1025.8  0.00   0.0     0     0.00      0     0.0  0.00   0.0   0.244   0.000   25.1    30    0.00   701    1    100.0   30 
11/08/18 10:30p    6.8    6.8    6.6    84    4.3   0.0     W  0.00  12.9   WNW    6.8    6.8    6.8    4.8  1026.2  0.00   0.0     0     0.00      0     0.0  0.00   0.0   0.240   0.000   25.0    30    0.00   700    1    100.0   30 
11/08/18 11:00p    6.7    6.8    6.7    84    4.2   0.0     W  0.00   9.7     W    6.7    6.7    6.7    4.7  1026.4  0.00   0.0     0     0.00      0     0.0  0.00   0.0   0.242   0.000   24.9    30    0.00   679    1     99.3   30 
11/08/18 11:30p    6.7    6.7    6.7    84    4.2   0.0     W  0.00   4.8     W    6.7    6.7    6.7    4.7  1026.9  0.00   0.0     0     0.00      0     0.0  0.00   0.0   0.242   0.000   24.8    30    0.00   677    1     99.0   30 
12/08/18 12:00a    6.6    6.7    6.6    84    4.1   0.0     W  0.00  11.3     W    6.6    6.6    6.6    4.6  1027.3  0.00   0.0     0     0.00      0     0.0  0.00   0.0   0.244   0.000   24.7    30    0.00   702    1    100.0   30 
12/08/18 12:30a    6.7    6.7    6.5    84    4.2   1.6   WSW  0.80  12.9   WSW    6.7    6.7    6.7    4.7  1027.6  0.00   0.0     0     0.00      0     0.0  0.00   0.0   0.242   0.000   24.6    30    0.00   701    1    100.0   30 
12/08/18  1:00a    6.6    6.8    6.6    83    3.9   1.6   WSW  0.80  16.1   WSW    6.6    6.6    6.6    4.6  1027.8  0.00   0.0     0     0.00      0     0.0  0.00   0.0   0.244   0.000   24.6    30    0.00   702    1    100.0   30 
12/08/18  1:30a    6.4    6.7    6.4    83    3.7   0.0   WSW  0.00  14.5   WSW    6.4    6.3    6.3    4.2  1028.1  0.00   0.0     0     0.00      0     0.0  0.00   0.0   0.249   0.000   24.5    30    0.00   700    1    100.0   30 
12/08/18  2:00a    5.9    6.4    5.9    83    3.3   0.0   ---  0.00   0.0   ---    5.9    5.8    5.8    3.8  1028.4  0.00   0.0     0     0.00      0     0.0  0.00   0.0   0.258   0.000   24.4    30    0.00   675    1     98.7   30 
12/08/18  2:30a    5.3    5.9    5.3    84    2.8   0.0   ---  0.00   0.0   ---    5.3    5.2    5.2    3.2  1028.7  0.00   0.0     0     0.00      0     0.0  0.00   0.0   0.271   0.000   24.3    30    0.00   700    1    100.0   30 
12/08/18  3:00a    4.5    5.3    4.5    86    2.4   0.0   ---  0.00   0.0   ---    4.5    4.4    4.4    2.3  1028.9  0.00   0.0     0     0.00      0     0.0  0.00   0.0   0.288   0.000   24.1    30    0.00   674    1     98.5   30 
12/08/18  3:30a    4.3    4.5    4.3    88    2.5   0.0   ---  0.00   0.0   ---    4.3    4.2    4.2    2.2  1029.1  0.00   0.0     0     0.00      0     0.0  0.00   0.0   0.293   0.000   23.9    30    0.00   701    1    100.0   30 
12/08/18  4:00a    3.7    4.3    3.7    89    2.1   0.0   ---  0.00   0.0   ---    3.7    3.7    3.7    1.6  1029.4  0.00   0.0     0     0.00      0     0.0  0.00   0.0   0.304   0.000   23.7    30    0.00   701    1    100.0   30 
12/08/18  4:30a    3.3    3.7    3.3    90    1.8   0.0   ---  0.00   0.0   ---    3.3    3.2    3.2    1.1  1030.0  0.00   0.0     0     0.00      0     0.0  0.00   0.0   0.314   0.000   23.5    30    0.00   676    1     98.8   30 
12/08/18  5:00a    2.8    3.3    2.8    91    1.5   0.0   ---  0.00   0.0   ---    2.8    2.7    2.7    0.6  1030.3  0.00   0.0     0     0.00      0     0.0  0.00   0.0   0.324   0.000   23.3    29    0.00   701    1    100.0   30 
12/08/18  5:30a    2.1    2.7    2.1    91    0.8   0.0   ---  0.00   0.0   ---    2.1    2.1    2.1   -0.1  1030.8  0.00   0.0     0     0.00      0     0.0  0.00   0.0   0.338   0.000   23.1    29    0.00   701    1    100.0   30 
12/08/18  6:00a    2.2    2.3    2.1    92    1.1   0.0   ---  0.00   0.0   ---    2.2    2.2    2.2    0.0  1031.1  0.00   0.0     0     0.00      0     0.0  0.00   0.0   0.336   0.000   22.9    29    0.00   699    1    100.0   30 
12/08/18  6:30a    1.7    2.3    1.7    92    0.6   0.0   ---  0.00   0.0   ---    1.7    1.7    1.7   -0.5  1031.7  0.00   0.0     0     0.00      0     0.0  0.00   0.0   0.346   0.000   22.8    29    0.00   702    1    100.0   30 
12/08/18  7:00a    1.7    1.7    1.4    93    0.7   0.0   ---  0.00   0.0   ---    1.7    1.7    1.7   -0.5  1032.1  0.00   0.0     0     0.00      0     0.0  0.00   0.0   0.347   0.000   22.6    29    0.00   702    1    100.0   30 
12/08/18  7:30a    1.8    1.8    1.7    93    0.8   0.0   ---  0.00   0.0   ---    1.8    1.8    1.8   -0.3  1032.6  0.00   0.0     9     0.39     21     0.0  0.00   0.0   0.345   0.000   22.4    29    0.00   700    1    100.0   30 
12/08/18  8:00a    2.7    2.7    1.8    94    1.8   0.0   ---  0.00   0.0   ---    2.7    2.7    2.7    1.2  1032.9  0.00   0.0    52     2.24     97     0.0  0.00   0.0   0.326   0.000   22.4    29    0.00   679    1     99.3   30 
12/08/18  8:30a    4.1    4.1    2.7    94    3.2   0.0   WNW  0.00   4.8   WNW    4.1    4.1    4.1    5.7  1033.2  0.00   0.0   147     6.32    225     0.0  0.00   0.0   0.296   0.000   22.4    29    0.00   700    1    100.0   30 
12/08/18  9:00a    6.1    6.1    4.1    90    4.6   0.0   ---  0.00   0.0   ---    6.1    6.1    6.1    9.0  1033.2  0.00   0.0   218     9.38    281     0.0  0.00   0.0   0.255   0.000   22.4    29    0.08   702    1    100.0   30 
12/08/18  9:30a    8.6    8.6    6.1    76    4.6   0.0   WNW  0.00  11.3     W    8.6    8.4    8.4   13.0  1033.4  0.00   0.0   326    14.02    369     0.2  0.04   0.6   0.203   0.000   22.6    29    0.00   676    1     98.8   30 
12/08/18 10:00a    9.8    9.8    8.6    69    4.4   0.0     W  0.00  11.3     W    9.8    9.6    9.6   14.1  1033.5  0.00   0.0   358    15.40    596     0.6  0.13   0.9   0.177   0.000   22.8    29    0.15   700    1    100.0   30 
12/08/18 10:30a   11.1   11.1    9.8    66    4.9   0.0     W  0.00  11.3     W   11.1   10.7   10.7   15.5  1033.7  0.00   0.0   398    17.12    582     1.0  0.21   1.3   0.152   0.000   23.1    29    0.00   701    1    100.0   30 
12/08/18 11:00a   11.6   11.6   11.1    62    4.5   1.6    SW  0.80  17.7   WSW   11.6   11.0   11.0   16.0  1033.8  0.00   0.0   457    19.65    631     1.2  0.26   1.6   0.141   0.000   23.3    29    0.20   702    1    100.0   30 
12/08/18 11:30a   11.7   11.8   11.6    62    4.7   3.2    NW  1.61  20.9   WSW   11.7   11.2   11.2   16.3  1033.7  0.00   0.0   441    18.97    786     1.4  0.30   1.9   0.138   0.000   23.6    29    0.00   702    1    100.0   30 
12/08/18 12:00p   12.1   12.1   11.8    59    4.3   3.2     W  1.61  22.5   WSW   12.1   11.4   11.4   15.2  1033.5  0.00   0.0   314    13.50    867     1.4  0.30   2.1   0.131   0.000   23.9    29    0.23   699    1    100.0   30 
12/08/18 12:30p   12.5   12.9   12.1    55    3.7   3.2     W  1.61  19.3   WSW   12.5   11.7   11.7   16.8  1033.3  0.00   0.0   453    19.48    731     1.7  0.36   2.2   0.122   0.000   24.2    29    0.00   656    1     95.9   30 
12/08/18  1:00p   13.0   13.3   12.6    55    4.2   1.6     W  0.80  19.3    NW   13.0   12.2   12.2   16.6  1033.1  0.00   0.0   357    15.35    772     1.4  0.30   2.1   0.111   0.000   24.3    29    0.23   691    1    100.0   30 
12/08/18  1:30p   13.1   13.3   13.0    55    4.2   1.6    NW  0.80  16.1     W   13.1   12.2   12.2   15.7  1032.5  0.00   0.0   275    11.83    403     1.0  0.21   1.8   0.110   0.000   24.6    29    0.00   689    1    100.0   30 
12/08/18  2:00p   12.8   13.1   12.8    56    4.3   1.6     W  0.80  17.7     N   12.8   12.0   12.0   14.4  1032.7  0.00   0.0   196     8.43    295     0.6  0.13   0.8   0.115   0.000   24.7    29    0.13   700    1    100.0   30 
12/08/18  2:30p   13.5   13.5   12.8    55    4.6   1.6    NW  0.80  25.7     W   13.5   12.6   12.6   15.8  1032.8  0.00   0.0   231     9.93    378     0.7  0.15   1.1   0.101   0.000   24.9    29    0.00   696    1    100.0   30 
12/08/18  3:00p   14.1   14.2   13.4    54    4.9   1.6    NW  0.80  17.7   WSW   14.1   13.1   13.1   18.1  1032.6  0.00   0.0   351    15.09    550     0.9  0.19   1.2   0.089   0.000   25.0    29    0.15   688    1    100.0   30 
12/08/18  3:30p   14.4   14.4   13.8    53    5.0   1.6     W  0.80  19.3     N   14.4   13.4   13.4   16.8  1032.8  0.00   0.0   243    10.45    534     0.3  0.06   0.8   0.081   0.000   25.1    29    0.00   692    1    100.0   30 
12/08/18  4:00p   13.5   14.4   13.5    54    4.4   1.6     W  0.80  16.1   WNW   13.5   12.6   12.6   13.6  1032.9  0.00   0.0    99     4.26    167     0.0  0.00   0.0   0.101   0.000   25.2    29    0.10   683    1     99.9   30 
12/08/18  4:30p   13.3   13.5   13.3    56    4.7   0.0     W  0.00  12.9   NNW   13.3   12.5   12.5   11.7  1032.6  0.00   0.0    85     3.66    111     0.0  0.00   0.0   0.104   0.000   25.3    28    0.00   699    1    100.0   30 
12/08/18  5:00p   12.7   13.3   12.7    61    5.3   1.6   WSW  0.80  20.9   WSW   12.7   12.0   12.0   10.3  1033.2  0.00   0.0    28     1.20     51     0.0  0.00   0.0   0.118   0.000   25.3    29    0.05   700    1    100.0   30 
12/08/18  5:30p   12.8   12.8   12.7    61    5.4   0.0    NW  0.00  11.3    NW   12.8   12.1   12.1   10.3  1033.1  0.00   0.0    14     0.60     23     0.0  0.00   0.0   0.116   0.000   25.2    29    0.00   702    1    100.0   30 
12/08/18  6:00p   12.5   12.8   12.5    62    5.4   0.0    NW  0.00   8.0   WNW   12.5   11.9   11.9    9.9  1033.5  0.00   0.0     0     0.00      0     0.0  0.00   0.0   0.122   0.000   25.1    29    0.00   701    1    100.0   30 
12/08/18  6:30p   12.4   12.6   12.4    63    5.5   1.6   NNW  0.80  17.7     N   12.4   11.8   11.8    9.8  1033.7  0.00   0.0     0     0.00      0     0.0  0.00   0.0   0.124   0.000   25.1    29    0.00   701    1    100.0   30 
12/08/18  7:00p   12.1   12.4   12.1    65    5.7   1.6   NNW  0.80  16.1   NNW   12.1   11.5   11.5    9.5  1034.2  0.00   0.0     0     0.00      0     0.0  0.00   0.0   0.131   0.000   25.1    29    0.03   701    1    100.0   30 
12/08/18  7:30p   11.8   12.1   11.8    66    5.7   0.0   NNW  0.00  12.9   NNW   11.8   11.3   11.3    9.3  1034.2  0.00   0.0     0     0.00      0     0.0  0.00   0.0   0.135   0.000   25.1    29    0.00   702    1    100.0   30 
12/08/18  8:00p   11.9   11.9   11.8    68    6.2   0.0   NNW  0.00  11.3   NNW   11.9   11.4   11.4    9.5  1034.7  0.00   0.0     0     0.00      0     0.0  0.00   0.0   0.134   0.000   25.0    29    0.03   700    1    100.0   30 
12/08/18  8:30p   11.3   11.9   11.3    72    6.5   0.0   NNW  0.00   6.4   NNW   11.3   11.0   11.0    9.1  1034.6  0.00   0.0     0     0.00      0     0.0  0.00   0.0   0.146   0.000   25.0    29    0.00   701    1    100.0   30 
12/08/18  9:00p   11.3   11.3   11.2    73    6.7   0.0   NNW  0.00  12.9   NNW   11.3   11.1   11.1    9.1  1035.1  0.00   0.0     0     0.00      0     0.0  0.00   0.0   0.146   0.000   24.9    29    0.03   682    1     99.7   30 
12/08/18  9:30p   11.5   11.5   11.3    74    7.0   0.0   NNW  0.00  14.5   NNW   11.5   11.2   11.2    9.3  1035.2  0.00   0.0     0     0.00      0     0.0  0.00   0.0   0.142   0.000   24.9    29    0.00   700    1    100.0   30 
12/08/18 10:00p   11.3   11.5   11.3    75    7.1   1.6   NNW  0.80  12.9   NNW   11.3   11.1   11.1    9.2  1035.1  0.00   0.0     0     0.00      0     0.0  0.00   0.0   0.146   0.000   24.9    29    0.03   701    1    100.0   30 
12/08/18 10:30p   11.0   11.3   11.0    76    6.9   0.0   NNW  0.00   8.0   NNW   11.0   10.8   10.8    8.9  1035.3  0.00   0.0     0     0.00      0     0.0  0.00   0.0   0.153   0.000   24.8    29    0.00   702    1    100.0   30 
12/08/18 11:00p   10.9   11.0   10.9    78    7.3   0.0   ---  0.00   0.0   ---   10.9   10.8   10.8    8.9  1035.2  0.00   0.0     0     0.00      0     0.0  0.00   0.0   0.154   0.000   24.8    30    0.03   703    1    100.0   30 
12/08/18 11:30p   10.8   11.0   10.8    81    7.7   0.0   NNW  0.00   3.2   NNW   10.8   10.8   10.8    8.9  1035.0  0.00   0.0     0     0.00      0     0.0  0.00   0.0   0.156   0.000   24.7    30    0.00   702    1    100.0   30 
13/08/18 12:00a   10.6   10.8   10.6    82    7.7   0.0   NNW  0.00  11.3   NNW   10.6   10.6   10.6    8.7  1035.0  0.00   0.0     0     0.00      0     0.0  0.00   0.0   0.161   0.000   24.7    30    0.03   701    1    100.0   30 
13/08/18 12:30a   10.5   10.6   10.5    83    7.7   0.0   ---  0.00   0.0   ---   10.5   10.5   10.5    8.6  1034.7  0.00   0.0     0     0.00      0     0.0  0.00   0.0   0.163   0.000   24.7    30    0.00   703    1    100.0   30 
13/08/18  1:00a   10.6   10.6   10.4    84    8.0   0.0   NNW  0.00   9.7   NNW   10.6   10.6   10.6    8.7  1034.7  0.00   0.0     0     0.00      0     0.0  0.00   0.0   0.161   0.000   24.6    30    0.00   702    1    100.0   30 
13/08/18  1:30a   11.3   11.3   10.6    80    8.0   0.0    NW  0.00  12.9    NW   11.3   11.2   11.2    9.3  1034.7  0.00   0.0     0     0.00      0     0.0  0.00   0.0   0.146   0.000   24.6    30    0.00   682    1     99.7   30 
13/08/18  2:00a   11.4   11.4   11.3    80    8.1   0.0    NW  0.00   8.0    NW   11.4   11.3   11.3    9.4  1034.6  0.00   0.0     0     0.00      0     0.0  0.00   0.0   0.145   0.000   24.6    30    0.03   699    1    100.0   30 
13/08/18  2:30a   11.1   11.4   11.1    83    8.3   0.0   WSW  0.00  11.3    NW   11.1   11.1   11.1    9.2  1034.5  0.00   0.0     0     0.00      0     0.0  0.00   0.0   0.150   0.000   24.6    30    0.00   700    1    100.0   30 
13/08/18  3:00a   11.2   11.2   11.1    83    8.4   0.0   WSW  0.00  11.3   WSW   11.2   11.2   11.2    9.3  1034.5  0.00   0.0     0     0.00      0     0.0  0.00   0.0   0.148   0.000   24.6    30    0.03   699    1    100.0   30 
13/08/18  3:30a   11.4   11.4   11.2    83    8.6   0.0     W  0.00  12.9     W   11.4   11.3   11.3    9.5  1034.3  0.00   0.0     0     0.00      0     0.0  0.00   0.0   0.145   0.000   24.6    31    0.00   699    1    100.0   30 
13/08/18  4:00a   11.3   11.4   11.3    84    8.7   0.0   WNW  0.00   8.0     W   11.3   11.3   11.3    9.4  1034.3  0.00   0.0     0     0.00      0     0.0  0.00   0.0   0.146   0.000   24.6    31    0.03   702    1    100.0   30 
13/08/18  4:30a   11.2   11.3   11.1    85    8.7   0.0   WNW  0.00  11.3     W   11.2   11.2   11.2    9.3  1034.3  0.00   0.0     0     0.00      0     0.0  0.00   0.0   0.149   0.000   24.6    31    0.00   701    1    100.0   30 
13/08/18  5:00a   11.3   11.3   11.2    84    8.7   0.0    NW  0.00  16.1   WNW   11.3   11.2   11.2    9.4  1034.5  0.00   0.0     0     0.00      0     0.0  0.00   0.0   0.147   0.000   24.6    31    0.00   703    1    100.0   30 
13/08/18  5:30a   11.3   11.3   11.3    83    8.5   0.0   WNW  0.00   4.8   WNW   11.3   11.3   11.3    9.4  1034.7  0.00   0.0     0     0.00      0     0.0  0.00   0.0   0.146   0.000   24.5    31    0.00   701    1    100.0   30 
13/08/18  6:00a   11.3   11.4   11.3    83    8.5   0.0   WNW  0.00   4.8   WNW   11.3   11.3   11.3    9.4  1035.0  0.00   0.0     0     0.00      0     0.0  0.00   0.0   0.146   0.000   24.5    31    0.00   702    1    100.0   30 
13/08/18  6:30a   11.4   11.4   11.3    83    8.6   0.0   WNW  0.00   6.4   WNW   11.4   11.3   11.3    9.5  1035.2  0.00   0.0     0     0.00      0     0.0  0.00   0.0   0.145   0.000   24.5    31    0.00   700    1    100.0   30 
13/08/18  7:00a   11.3   11.4   11.3    83    8.5   0.0   WSW  0.00  14.5   WSW   11.3   11.3   11.3    9.4  1035.5  0.00   0.0     0     0.00      0     0.0  0.00   0.0   0.146   0.000   24.5    31    0.03   698    1    100.0   30 
13/08/18  7:30a   11.2   11.4   11.2    85    8.7   0.0   WSW  0.00   4.8   WSW   11.2   11.2   11.2    9.3  1036.1  0.00   0.0     3     0.13     12     0.0  0.00   0.0   0.149   0.000   24.4    32    0.00   703    1    100.0   30 
13/08/18  8:00a   11.3   11.3   11.2    85    8.9   0.0   ---  0.00   0.0   ---   11.3   11.3   11.3    9.8  1036.7  0.00   0.0    22     0.95     35     0.0  0.00   0.0   0.146   0.000   24.5    32    0.00   701    1    100.0   30 
13/08/18  8:30a   11.7   11.7   11.3    81    8.6   1.6    SW  0.80  11.3   WSW   11.7   11.6   11.6   11.9  1037.3  0.00   0.0    60     2.58     98     0.0  0.00   0.0   0.138   0.000   25.0    33    0.00   702    1    100.0   30 
13/08/18  9:00a   12.2   12.2   11.7    79    8.6   0.0   WNW  0.00   3.2   WNW   12.2   12.0   12.0   13.2  1037.6  0.00   0.0    99     4.26    130     0.0  0.00   0.0   0.128   0.000   25.4    34    0.05   698    1    100.0   30 
13/08/18  9:30a   12.8   12.8   12.2    75    8.5   1.6    SW  0.80  14.5    SW   12.8   12.6   12.6   15.2  1037.8  0.00   0.0   179     7.70    346     0.0  0.00   0.0   0.115   0.000   25.7    34    0.00   701    1    100.0   30 
13/08/18 10:00a   13.1   13.2   12.8    74    8.6   1.6   WSW  0.80  17.7     W   13.1   12.8   12.8   15.3  1037.9  0.00   0.0   186     8.00    309     0.4  0.09   0.8   0.109   0.000   26.2    34    0.10   701    1    100.0   30 
13/08/18 10:30a   12.7   13.1   12.3    81    9.5   1.6     W  0.80  16.1   NNW   12.7   12.6   12.6   16.7  1037.9  0.00   0.0   300    12.90    573     0.9  0.19   1.4   0.117   0.000   26.7    34    0.00   700    1    100.0   30 
13/08/18 11:00a   13.7   13.8   12.7    76    9.5   0.0   NNW  0.00  12.9   NNW   13.7   13.4   13.4   18.3  1038.1  0.00   0.0   377    16.21    722     1.1  0.24   1.7   0.097   0.000   27.4    34    0.18   698    1    100.0   30 
13/08/18 11:30a   13.4   13.7   13.1    77    9.4   0.0   WNW  0.00  12.9     W   13.4   13.1   13.1   16.8  1037.9  0.00   0.0   289    12.43    355     1.0  0.21   1.2   0.103   0.000   27.9    34    0.00   699    1    100.0   30 
13/08/18 12:00p   12.8   13.6   12.8    81    9.7   1.6   WSW  0.80  16.1   WSW   12.8   12.7   12.7   15.4  1037.6  0.00   0.0   226     9.72    364     0.8  0.17   1.3   0.115   0.000   28.5    34    0.13   700    1    100.0   30 
13/08/18 12:30p   12.5   13.1   12.5    84    9.9   1.6   WSW  0.80  19.3   WSW   12.5   12.4   12.4   15.4  1037.3  0.25   0.0   241    10.36    343     0.9  0.19   1.3   0.122   0.000   28.8    34    0.00   698    1    100.0   30 
13/08/18  1:00p   14.1   14.1   12.5    73    9.3   0.0     W  0.00  14.5     W   14.1   13.7   13.7   18.1  1036.5  0.00   0.0   336    14.45    640     1.2  0.26   2.0   0.089   0.000   29.3    34    0.15   702    1    100.0   30 
13/08/18  1:30p   14.7   14.7   14.1    68    8.8   1.6     W  0.80  16.1     W   14.7   14.2   14.2   17.1  1036.3  0.00   0.0   223     9.59    306     0.8  0.17   1.1   0.076   0.000   29.6    34    0.00   700    1    100.0   30 
13/08/18  2:00p   14.9   14.9   14.6    67    8.9   1.6    SW  0.80  17.7   WSW   14.9   14.4   14.4   18.2  1036.3  0.00   0.0   269    11.57    512     0.9  0.19   1.5   0.071   0.000   30.2    33    0.13   700    1    100.0   30 
13/08/18  2:30p   15.1   15.2   14.9    66    8.8   1.6     W  0.80  16.1     W   15.1   14.6   14.6   18.1  1036.3  0.00   0.0   237    10.19    494     0.7  0.15   1.4   0.067   0.000   30.4    33    0.00   661    1     96.6   30 
13/08/18  3:00p   14.6   15.3   14.6    71    9.4   1.6   WSW  0.80  19.3   WSW   14.6   14.2   14.2   16.1  1036.7  0.00   0.0   141     6.06    262     0.2  0.04   0.8   0.079   0.000   30.3    32    0.13   699    1    100.0   30 
13/08/18  3:30p   14.0   14.6   14.0    72    9.0   1.6   WSW  0.80  16.1   WSW   14.0   13.6   13.6   16.3  1036.9  0.00   0.0   179     7.70    352     0.1  0.02   0.6   0.090   0.000   29.7    32    0.00   701    1    100.0   30 
13/08/18  4:00p   13.5   14.0   13.5    74    9.0   3.2   WSW  1.61  20.9     W   13.5   13.2   13.2   14.8  1037.1  0.00   0.0   127     5.46    223     0.0  0.00   0.0   0.101   0.000   29.3    32    0.10   702    1    100.0   30 
13/08/18  4:30p   13.6   13.6   13.4    72    8.6   0.0     W  0.00  11.3     W   13.6   13.2   13.2   12.1  1037.1  0.00   0.0    62     2.67    221     0.0  0.00   0.0   0.100   0.000   28.8    32    0.00   701    1    100.0   30 
13/08/18  5:00p   13.8   13.8   13.6    69    8.2   0.0   WSW  0.00  12.9   WNW   13.8   13.3   13.3   12.2  1036.9  0.00   0.0    59     2.54     90     0.0  0.00   0.0   0.095   0.000   28.4    32    0.03   702    1    100.0   30 
13/08/18  5:30p   13.6   13.8   13.6    68    7.8   0.0   WSW  0.00   4.8   WSW   13.6   13.1   13.1   11.6  1036.8  0.00   0.0    34     1.46     54     0.0  0.00   0.0   0.100   0.000   28.1    32    0.00   703    1    100.0   30 
13/08/18  6:00p   13.3   13.6   13.3    67    7.3   0.0   ---  0.00   0.0   ---   13.3   12.8   12.8   11.0  1037.1  0.00   0.0     4     0.17     11     0.0  0.00   0.0   0.104   0.000   27.9    31    0.03   702    1    100.0   30 
13/08/18  6:30p   13.3   13.3   13.2    69    7.7   0.0   ---  0.00   0.0   ---   13.3   12.8   12.8   10.9  1037.2  0.00   0.0     0     0.00      0     0.0  0.00   0.0   0.105   0.000   28.1    31    0.00   700    1    100.0   30 
13/08/18  7:00p   13.3   13.4   13.3    68    7.5   0.0    NW  0.00  14.5   WSW   13.3   12.8   12.8   10.9  1037.8  0.00   0.0     0     0.00      0     0.0  0.00   0.0   0.105   0.000   27.8    31    0.03   703    1    100.0   30 
13/08/18  7:30p   13.1   13.3   13.1    69    7.5   0.0   ---  0.00   0.0   ---   13.1   12.6   12.6   10.7  1038.1  0.00   0.0     0     0.00      0     0.0  0.00   0.0   0.110   0.000   27.8    31    0.00   702    1    100.0   30 
13/08/18  8:00p   12.6   13.1   12.5    71    7.4   0.0   ---  0.00   0.0   ---   12.6   12.2   12.2   10.3  1038.1  0.00   0.0     0     0.00      0     0.0  0.00   0.0   0.120   0.000   27.6    31    0.03   702    1    100.0   30 
13/08/18  8:30p   11.3   12.5   11.3    74    6.9   0.0   ---  0.00   0.0   ---   11.3   11.1   11.1    9.2  1038.3  0.00   0.0     0     0.00      0     0.0  0.00   0.0   0.146   0.000   27.3    31    0.00   678    1     99.1   30 
13/08/18  9:00p    9.9   11.3    9.9    80    6.7   0.0   ---  0.00   0.0   ---    9.9    9.9    9.9    8.1  1038.2  0.00   0.0     0     0.00      0     0.0  0.00   0.0   0.175   0.000   27.0    31    0.03   701    1    100.0   30 
13/08/18  9:30p    9.1    9.9    9.1    83    6.3   0.0   ---  0.00   0.0   ---    9.1    9.1    9.1    7.2  1038.1  0.00   0.0     0     0.00      0     0.0  0.00   0.0   0.193   0.000   26.8    31    0.00   701    1    100.0   30 
13/08/18 10:00p    8.2    9.1    8.2    85    5.8   0.0   ---  0.00   0.0   ---    8.2    8.2    8.2    6.2  1038.1  0.00   0.0     0     0.00      0     0.0  0.00   0.0   0.212   0.000   26.5    31    0.00   700    1    100.0   30 
13/08/18 10:30p    8.1    8.2    7.9    87    6.0   0.0   ---  0.00   0.0   ---    8.1    8.1    8.1    6.2  1038.2  0.00   0.0     0     0.00      0     0.0  0.00   0.0   0.214   0.000   26.3    31    0.00   703    1    100.0   30 
13/08/18 11:00p    8.3    8.3    8.0    89    6.6   0.0   ---  0.00   0.0   ---    8.3    8.4    8.4    6.5  1038.2  0.00   0.0     0     0.00      0     0.0  0.00   0.0   0.209   0.000   26.1    31    0.00   697    1    100.0   30 
13/08/18 11:30p    9.1    9.1    8.3    87    7.0   0.0   ---  0.00   0.0   ---    9.1    9.1    9.1    7.2  1038.2  0.00   0.0     0     0.00      0     0.0  0.00   0.0   0.193   0.000   26.0    31    0.00   664    1     97.1   30 
14/08/18 12:00a    8.8    9.2    8.8    85    6.4   0.0   ---  0.00   0.0   ---    8.8    8.8    8.8    6.9  1038.0  0.00   0.0     0     0.00      0     0.0  0.00   0.0   0.198   0.000   25.9    31    0.00   672    1     98.2   30 
14/08/18 12:30a   10.0   10.0    8.8    83    7.2   0.0   WNW  0.00   1.6   WNW   10.0   10.1   10.1    8.2  1037.9  0.00   0.0     0     0.00      0     0.0  0.00   0.0   0.174   0.000   25.8    31    0.00   696    1    100.0   30 
14/08/18  1:00a   10.9   10.9   10.0    78    7.3   0.0   WNW  0.00   4.8   WNW   10.9   10.8   10.8    8.9  1037.8  0.00   0.0     0     0.00      0     0.0  0.00   0.0   0.154   0.000   25.8    31    0.00   702    1    100.0   30 
14/08/18  1:30a   10.9   11.0   10.9    77    7.1   0.0   ---  0.00   0.0   ---   10.9   10.8   10.8    8.9  1037.9  0.00   0.0     0     0.00      0     0.0  0.00   0.0   0.154   0.000   25.7    31    0.00   700    1    100.0   30 
14/08/18  2:00a    9.8   10.9    9.8    79    6.3   0.0   ---  0.00   0.0   ---    9.8    9.7    9.7    7.8  1037.7  0.00   0.0     0     0.00      0     0.0  0.00   0.0   0.178   0.000   25.6    31    0.03   701    1    100.0   30 
14/08/18  2:30a    8.4    9.7    8.4    83    5.7   0.0   ---  0.00   0.0   ---    8.4    8.4    8.4    6.4  1037.4  0.00   0.0     0     0.00      0     0.0  0.00   0.0   0.206   0.000   25.4    31    0.00   661    1     96.6   30 
14/08/18  3:00a    8.5    8.5    8.2    86    6.3   0.0   ---  0.00   0.0   ---    8.5    8.5    8.5    6.6  1037.0  0.00   0.0     0     0.00      0     0.0  0.00   0.0   0.205   0.000   25.4    31    0.00   677    1     99.0   30 
14/08/18  3:30a    8.7    8.7    8.5    87    6.7   0.0   ---  0.00   0.0   ---    8.7    8.8    8.8    6.9  1036.8  0.00   0.0     0     0.00      0     0.0  0.00   0.0   0.200   0.000   25.3    31    0.00   696    1    100.0   30 
14/08/18  4:00a    9.2    9.2    8.7    86    6.9   0.0   ---  0.00   0.0   ---    9.2    9.2    9.2    7.3  1036.8  0.00   0.0     0     0.00      0     0.0  0.00   0.0   0.191   0.000   25.3    31    0.00   658    1     96.2   30 
14/08/18  4:30a   10.2   10.2    9.2    81    7.1   0.0   WNW  0.00  11.3   WNW   10.2   10.2   10.2    8.3  1036.8  0.00   0.0     0     0.00      0     0.0  0.00   0.0   0.169   0.000   25.1    31    0.00   703    1    100.0   30 
14/08/18  5:00a   10.6   10.6   10.3    78    6.9   0.0   WNW  0.00   8.0   WNW   10.6   10.5   10.5    8.6  1036.8  0.00   0.0     0     0.00      0     0.0  0.00   0.0   0.161   0.000   25.1    31    0.03   700    1    100.0   30 
14/08/18  5:30a   10.7   10.7   10.6    79    7.2   0.0   WNW  0.00   6.4   WNW   10.7   10.6   10.6    8.7  1036.7  0.00   0.0     0     0.00      0     0.0  0.00   0.0   0.159   0.000   25.1    31    0.00   701    1    100.0   30 
14/08/18  6:00a   10.7   10.8   10.7    79    7.2   0.0    NW  0.00   9.7    NW   10.7   10.6   10.6    8.7  1036.8  0.00   0.0     0     0.00      0     0.0  0.00   0.0   0.159   0.000   25.1    31    0.03   699    1    100.0   30 
14/08/18  6:30a   10.4   10.7   10.4    79    7.0   0.0   NNW  0.00   9.7   NNW   10.4   10.4   10.4    8.5  1036.7  0.00   0.0     0     0.00      0     0.0  0.00   0.0   0.164   0.000   25.1    31    0.00   680    1     99.4   30 
14/08/18  7:00a    9.9   10.4    9.9    80    6.7   0.0   NNW  0.00   9.7   NNW    9.9    9.9    9.9    8.1  1036.8  0.00   0.0     0     0.00      0     0.0  0.00   0.0   0.175   0.000   25.1    31    0.00   694    1    100.0   30 
14/08/18  7:30a    9.6    9.9    9.6    82    6.6   0.0   NNW  0.00  14.5   NNW    9.6    9.6    9.6    7.8  1036.5  0.00   0.0    11     0.47     23     0.0  0.00   0.0   0.183   0.000   24.9    32    0.00   700    1    100.0   30 
14/08/18  8:00a   10.4   10.4    9.6    80    7.1   0.0   NNW  0.00  14.5   NNW   10.4   10.3   10.3    9.1  1036.1  0.00   0.0    56     2.41     95     0.0  0.00   0.0   0.166   0.000   24.8    32    0.03   699    1    100.0   30 
14/08/18  8:30a   11.2   11.2   10.4    77    7.3   1.6   NNW  0.80  14.5     N   11.2   11.1   11.1   12.8  1035.9  0.00   0.0   147     6.32    197     0.0  0.00   0.0   0.148   0.000   24.9    32    0.00   701    1    100.0   30 
14/08/18  9:00a   11.7   11.7   11.2    75    7.4   4.8     N  2.41  29.0     N   11.7   11.4   11.3   14.9  1035.7  0.00   0.0   246    10.58    288     0.0  0.00   0.0   0.138   0.000   24.5    33    0.10   702    1    100.0   30 
14/08/18  9:30a   12.2   12.2   11.7    73    7.5   9.7     N  4.83  30.6    NW   11.3   11.9   10.9   15.7  1035.3  0.00   0.0   332    14.28    369     0.6  0.13   0.8   0.127   0.000   25.0    34    0.00   697    1    100.0   30 
14/08/18 10:00a   12.8   12.8   12.2    70    7.5   8.0     N  4.02  25.7    NE   12.3   12.4   11.7   17.1  1035.3  0.00   0.0   406    17.46    439     0.9  0.19   1.1   0.115   0.000   25.6    34    0.20   703    1    100.0   30 
14/08/18 10:30a   13.3   13.3   12.8    68    7.5   6.4     N  3.22  27.4   NNW   13.2   12.8   12.5   18.3  1035.1  0.00   0.0   470    20.21    496     1.3  0.28   1.5   0.104   0.000   26.1    34    0.00   699    1    100.0   30 
14/08/18 11:00a   13.5   13.6   13.3    68    7.7   9.7     N  4.83  32.2   NNE   12.9   13.0   12.2   18.2  1034.8  0.00   0.0   520    22.36    541     1.6  0.34   1.8   0.101   0.000   26.6    34    0.28   701    1    100.0   30 
14/08/18 11:30a   14.1   14.1   13.5    65    7.6   9.7     N  4.83  33.8     N   13.6   13.6   12.9   19.1  1033.9  0.00   0.0   558    24.00    575     1.9  0.41   2.1   0.088   0.000   27.2    33    0.00   698    1    100.0   30 
14/08/18 12:00p   14.5   14.6   14.1    64    7.8  11.3   NNE  5.63  33.8   NNE   13.9   13.9   13.0   19.2  1033.3  0.00   0.0   583    25.07    610     2.2  0.47   2.2   0.080   0.000   27.8    32    0.33   700    1    100.0   30 
14/08/18 12:30p   14.7   14.7   14.5    65    8.2   9.7     N  4.83  33.8   NNW   14.3   14.2   13.5   20.2  1032.5  0.00   0.0   601    25.85    656     2.1  0.45   2.3   0.075   0.000   28.1    32    0.00   701    1    100.0   30 
14/08/18  1:00p   15.2   15.2   14.7    65    8.6   9.7   NNE  4.83  38.6   NNE   14.8   14.6   14.0   20.7  1031.7  0.00   0.0   587    25.24    617     2.2  0.47   2.3   0.066   0.000   28.5    32    0.33   698    1    100.0   30 
14/08/18  1:30p   15.9   15.9   15.2    59    7.9   9.7   NNE  4.83  33.8   NNE   15.8   15.2   14.7   21.4  1031.2  0.00   0.0   565    24.30    582     2.1  0.45   2.2   0.050   0.000   28.9    32    0.00   697    1    100.0   30 
14/08/18  2:00p   16.2   16.2   15.9    58    7.9   9.7     N  4.83  33.8     N   16.1   15.4   15.0   21.7  1030.7  0.00   0.0   533    22.92    550     1.9  0.41   2.0   0.044   0.000   29.2    31    0.33   697    1    100.0   30 
14/08/18  2:30p   15.7   16.2   15.7    58    7.5  11.3     N  5.63  38.6     N   15.3   14.9   14.2   20.8  1030.1  0.00   0.0   486    20.90    510     1.6  0.34   1.7   0.054   0.000   28.9    31    0.00   699    1    100.0   30 
14/08/18  3:00p   16.0   16.1   15.7    57    7.5  11.3   NNE  5.63  35.4   NNE   15.7   15.2   14.5   20.9  1029.9  0.00   0.0   428    18.41    459     1.2  0.26   1.4   0.049   0.000   28.7    31    0.30   697    1    100.0   30 
14/08/18  3:30p   16.1   16.1   15.8    57    7.5   8.0     N  4.02  32.2     E   16.1   15.3   14.9   21.0  1029.5  0.00   0.0   360    15.48    394     0.9  0.19   1.0   0.047   0.000   28.7    31    0.00   695    1    100.0   30 
14/08/18  4:00p   15.8   16.1   15.8    59    7.8   9.7   NNE  4.83  35.4     N   15.7   15.1   14.6   19.6  1029.3  0.00   0.0   279    12.00    320     0.5  0.11   0.7   0.052   0.000   28.5    31    0.23   679    1     99.3   30 
14/08/18  4:30p   15.4   15.8   15.4    61    8.0   8.0   NNE  4.02  33.8   NNE   15.4   14.8   14.4   14.6  1028.7  0.00   0.0   173     7.44    241     0.0  0.00   0.0   0.060   0.000   28.3    31    0.00   696    1    100.0   30 
14/08/18  5:00p   15.1   15.4   15.1    63    8.1   9.7   NNE  4.83  29.0     N   14.8   14.5   13.9   12.3  1027.9  0.00   0.0    28     1.20     35     0.0  0.00   0.0   0.067   0.000   28.1    31    0.10   693    1    100.0   30 
14/08/18  5:30p   14.8   15.1   14.8    63    7.9   9.7   NNE  4.83  35.4    NW   14.4   14.2   13.6   11.9  1027.3  0.00   0.0    17     0.73     23     0.0  0.00   0.0   0.073   0.000   27.8    31    0.00   693    1    100.0   30 
14/08/18  6:00p   14.6   14.8   14.6    64    7.8   9.7     N  4.83  32.2   NNE   14.1   13.9   13.3   11.4  1027.2  0.00   0.0     2     0.09      9     0.0  0.00   0.0   0.079   0.000   28.1    31    0.05   702    1    100.0   30 
14/08/18  6:30p   14.1   14.6   14.1    67    8.1   9.7     N  4.83  30.6     N   13.6   13.6   12.9   11.0  1027.0  0.00   0.0     0     0.00      0     0.0  0.00   0.0   0.088   0.000   28.1    31    0.00   699    1    100.0   30 
14/08/18  7:00p   14.0   14.1   14.0    68    8.2   8.0   NNE  4.02  24.1   NNE   13.7   13.5   13.0   11.1  1027.1  0.00   0.0     0     0.00      0     0.0  0.00   0.0   0.090   0.000   27.8    30    0.05   676    1     98.8   30 
14/08/18  7:30p   14.1   14.2   14.0    67    8.1   9.7   NNE  4.83  33.8   NNE   13.6   13.6   12.9   11.0  1026.9  0.00   0.0     0     0.00      0     0.0  0.00   0.0   0.088   0.000   27.8    30    0.00   700    1    100.0   30 
14/08/18  8:00p   14.2   14.3   14.2    66    8.0   9.7   NNE  4.83  29.0   NNE   13.7   13.7   13.0   11.1  1026.2  0.00   0.0     0     0.00      0     0.0  0.00   0.0   0.086   0.000   27.6    31    0.05   698    1    100.0   30 
14/08/18  8:30p   14.0   14.2   14.0    67    8.0   8.0   NNE  4.02  29.0    NE   13.7   13.5   13.0   11.1  1026.4  0.00   0.0     0     0.00      0     0.0  0.00   0.0   0.090   0.000   27.4    31    0.00   703    1    100.0   30 
14/08/18  9:00p   13.9   14.1   13.9    66    7.7   8.0   NNE  4.02  29.0    NE   13.7   13.4   12.8   10.9  1026.1  0.00   0.0     0     0.00      0     0.0  0.00   0.0   0.091   0.000   27.2    31    0.05   700    1    100.0   30 
14/08/18  9:30p   13.7   13.9   13.7    66    7.4   8.0   NNE  4.02  30.6     N   13.3   13.1   12.5   10.6  1025.5  0.00   0.0     0     0.00      0     0.0  0.00   0.0   0.097   0.000   27.1    31    0.00   672    1     98.2   30 
14/08/18 10:00p   13.8   13.8   13.7    64    7.1   8.0   NNE  4.02  27.4    NE   13.5   13.2   12.7   10.7  1025.1  0.00   0.0     0     0.00      0     0.0  0.00   0.0   0.094   0.000   26.9    31    0.05   700    1    100.0   30 
14/08/18 10:30p   13.7   13.8   13.7    63    6.8   3.2     N  1.61  20.9    NE   13.7   13.1   13.1   11.2  1024.4  0.00   0.0     0     0.00      0     0.0  0.00   0.0   0.096   0.000   26.8    31    0.00   701    1    100.0   30 
14/08/18 11:00p   13.7   13.7   13.7    63    6.7   3.2   NNE  1.61  19.3    NE   13.7   13.1   13.1   11.1  1023.3  0.00   0.0     0     0.00      0     0.0  0.00   0.0   0.097   0.000   26.7    31    0.03   703    1    100.0   30 
14/08/18 11:30p   14.1   14.1   13.4    57    5.7   1.6   NNE  0.80  17.7   WSW   14.1   13.2   13.2   11.2  1022.7  0.00   0.0     0     0.00      0     0.0  0.00   0.0   0.089   0.000   26.6    31    0.00   702    1    100.0   30 
15/08/18 12:00a   15.9   15.9   14.1    47    4.6   9.7   NNE  4.83  40.2    NW   15.8   14.7   14.2   12.2  1022.1  0.00   0.0     0     0.00      0     0.0  0.00   0.0   0.050   0.000   26.4    31    0.05   701    1    100.0   30 
15/08/18 12:30a   15.5   15.9   15.5    48    4.5  11.3   NNE  5.63  38.6   NNE   15.1   14.3   13.5   11.6  1021.4  0.00   0.0     0     0.00      0     0.0  0.00   0.0   0.059   0.000   26.3    31    0.00   701    1    100.0   30 
15/08/18  1:00a   15.2   15.6   15.2    49    4.6  12.9     N  6.44  46.7    NE   14.6   14.1   12.9   10.9  1021.2  0.00   0.0     0     0.00      0     0.0  0.00   0.0   0.065   0.000   26.3    30    0.10   702    1    100.0   30 
15/08/18  1:30a   15.2   15.2   15.2    49    4.6  14.5     N  7.24  53.1    NE   14.4   14.1   12.6   10.8  1020.3  0.00   0.0     0     0.00      0     0.0  0.00   0.0   0.065   0.000   26.2    30    0.00   701    1    100.0   30 
15/08/18  2:00a   14.4   15.3   14.4    51    4.4  14.5     N  7.24  45.1     N   13.4   13.4   11.8    9.9  1020.4  0.00   0.0     0     0.00      0     0.0  0.00   0.0   0.081   0.000   26.2    30    0.10   701    1    100.0   30 
15/08/18  2:30a   13.7   14.4   13.7    54    4.6  11.3     N  5.63  35.4     N   12.9   12.8   11.8    9.8  1019.9  0.00   0.0     0     0.00      0     0.0  0.00   0.0   0.096   0.000   26.1    30    0.00   702    1    100.0   30 
15/08/18  3:00a   13.3   13.7   13.3    55    4.4  12.9   NNE  6.44  35.4    NE   12.2   12.4   11.0    9.1  1019.2  0.00   0.0     0     0.00      0     0.0  0.00   0.0   0.105   0.000   26.1    30    0.08   698    1    100.0   30 
15/08/18  3:30a   13.1   13.3   13.0    55    4.2   9.7     N  4.83  33.8     N   12.3   12.2   11.4    9.3  1018.5  0.00   0.0     0     0.00      0     0.0  0.00   0.0   0.110   0.000   26.0    30    0.00   702    1    100.0   30 
15/08/18  4:00a   12.8   13.1   12.8    55    4.0  11.3     N  5.63  38.6     N   11.8   12.0   10.9    8.9  1018.3  0.00   0.0     0     0.00      0     0.0  0.00   0.0   0.115   0.000   25.9    29    0.08   699    1    100.0   30 
15/08/18  4:30a   13.0   13.1   12.8    53    3.6   6.4     N  3.22  30.6   NNW   12.8   12.1   11.7    9.6  1018.2  0.00   0.0     0     0.00      0     0.0  0.00   0.0   0.111   0.000   25.9    29    0.00   672    1     98.2   30 
15/08/18  5:00a   13.8   13.8   13.1    50    3.6   6.4   NNW  3.22  32.2    NW   13.8   12.8   12.4   10.4  1018.2  0.00   0.0     0     0.00      0     0.0  0.00   0.0   0.094   0.000   25.8    29    0.05   700    1    100.0   30 
15/08/18  5:30a   13.8   13.8   13.8    50    3.6   8.0     N  4.02  30.6   WNW   13.5   12.8   12.2   10.2  1017.9  0.00   0.0     0     0.00      0     0.0  0.00   0.0   0.094   0.000   25.8    29    0.00   701    1    100.0   30 
15/08/18  6:00a   13.8   14.0   13.8    50    3.6   8.0   NNW  4.02  32.2     N   13.5   12.8   12.2   10.2  1018.3  0.00   0.0     0     0.00      0     0.0  0.00   0.0   0.094   0.000   25.8    29    0.08   700    1    100.0   30 
15/08/18  6:30a   13.4   13.8   13.4    53    4.0   6.4     N  3.22  29.0   NNE   13.3   12.5   12.2   10.1  1018.6  0.00   0.0     0     0.00      0     0.0  0.00   0.0   0.102   0.000   25.7    29    0.00   700    1    100.0   30 
15/08/18  7:00a   13.1   13.5   13.1    54    4.0   4.8   NNW  2.41  25.7   NNW   13.1   12.2   12.1   10.1  1018.3  0.00   0.0     0     0.00      0     0.0  0.00   0.0   0.109   0.000   25.7    29    0.03   700    1    100.0   30 
15/08/18  7:30a   12.8   13.1   12.8    56    4.3   3.2   NNW  1.61  20.9    NW   12.8   12.0   12.0   10.0  1019.0  0.00   0.0     4     0.17     11     0.0  0.00   0.0   0.115   0.000   25.7    29    0.00   701    1    100.0   30 
15/08/18  8:00a   12.6   12.8   12.6    58    4.6   3.2     N  1.61  30.6   NNW   12.6   11.9   11.9   10.2  1019.0  0.00   0.0    24     1.03     37     0.0  0.00   0.0   0.119   0.000   25.9    28    0.03   701    1    100.0   30 
15/08/18  8:30a   12.6   12.7   12.6    60    5.0   3.2   NNW  1.61  25.7   NNE   12.6   11.8   11.8   11.5  1019.2  0.00   0.0    35     1.51     42     0.0  0.00   0.0   0.120   0.000   26.3    28    0.00   701    1    100.0   30 
15/08/18  9:00a   13.8   13.8   12.6    58    5.7   3.2     N  1.61  24.1     N   13.8   13.1   13.1   15.4  1019.4  0.00   0.0   167     7.18    359     0.0  0.00   0.0   0.094   0.000   26.4    29    0.08   699    1    100.0   30 
15/08/18  9:30a   13.9   13.9   13.6    58    5.8   6.4   NNW  3.22  27.4     N   13.9   13.2   12.8   14.8  1019.3  0.00   0.0   147     6.32    290     0.1  0.02   0.6   0.091   0.000   26.8    29    0.00   703    1    100.0   30 
15/08/18 10:00a   13.8   13.9   13.8    60    6.2   1.6   NNW  0.80  20.9     N   13.8   13.1   13.1   13.7  1019.5  0.00   0.0    88     3.78    204     0.0  0.00   0.5   0.094   0.000   27.2    29    0.10   675    1     98.7   30 
15/08/18 10:30a   15.2   15.2   13.8    59    7.3   0.0   NNW  0.00  16.1   NNW   15.2   14.4   14.4   16.7  1019.4  0.00   0.0   184     7.91    308     0.5  0.11   1.2   0.065   0.000   27.8    30    0.00   701    1    100.0   30 
15/08/18 11:00a   17.3   17.3   15.2    52    7.4   3.2   NNW  1.61  27.4     N   17.3   16.4   16.4   23.6  1019.4  0.00   0.0   603    25.93    744     1.6  0.34   1.9   0.021   0.000   28.4    30    0.23   702    1    100.0   30 
15/08/18 11:30a   17.1   17.3   17.0    51    6.9   6.4   NNW  3.22  32.2    NW   17.1   16.1   16.0   23.9  1019.2  0.00   0.0   680    29.24    754     1.9  0.41   2.2   0.025   0.000   28.8    29    0.00   701    1    100.0   30 
15/08/18 12:00p   17.7   17.7   17.1    45    5.6   4.8   NNW  2.41  29.0   NNE   17.7   16.5   16.5   23.9  1018.9  0.00   0.0   671    28.86    687     2.2  0.47   2.3   0.013   0.000   29.8    29    0.41   677    1     99.0   30 
15/08/18 12:30p   18.6   18.6   17.7    41    5.0   3.2   NNW  1.61  25.7     W   18.6   17.2   17.2   25.3  1018.2  0.00   0.0   721    31.01    814     2.2  0.47   2.4   0.000   0.005   30.3    28    0.00   700    1    100.0   30 
15/08/18  1:00p   18.7   18.9   18.4    35    2.9   6.4     W  3.22  37.0     W   18.7   17.0   17.0   25.4  1018.1  0.00   0.0   731    31.44    798     2.2  0.47   2.4   0.000   0.008   30.3    27    0.43   700    1    100.0   30 
15/08/18  1:30p   18.8   18.9   18.5    34    2.6   4.8     W  2.41  30.6    NW   18.8   17.0   17.0   25.6  1018.1  0.00   0.0   708    30.45    765     2.2  0.47   2.4   0.000   0.009   30.3    26    0.00   700    1    100.0   30 
15/08/18  2:00p   19.3   19.3   18.6    32    2.2   3.2     W  1.61  20.9   NNW   19.3   17.4   17.4   25.9  1017.6  0.00   0.0   658    28.30    684     2.0  0.43   2.1   0.000   0.020   30.7    26    0.41   701    1    100.0   30 
15/08/18  2:30p   18.4   19.3   18.4    32    1.4   4.8   NNW  2.41  25.7     N   18.4   16.4   16.4   24.6  1017.8  0.00   0.0   583    25.07    663     1.6  0.34   1.8   0.000   0.001   30.4    25    0.00   695    1    100.0   30 
15/08/18  3:00p   18.3   18.5   18.2    33    1.7   3.2     W  1.61  22.5     W   18.3   16.4   16.4   22.6  1017.8  0.00   0.0   425    18.28    517     1.2  0.26   1.4   0.001   0.000   30.1    24    0.30   684    1    100.0   30 
15/08/18  3:30p   16.7   18.3   16.7    41    3.3   1.6   WSW  0.80  20.9   SSE   16.7   15.2   15.2   16.3  1017.8  0.00   0.0   100     4.30    139     0.1  0.02   0.6   0.035   0.000   29.8    25    0.00   701    1    100.0   30 
15/08/18  4:00p   14.3   16.7   14.3    58    6.1   1.6     S  0.80  19.3   WSW   14.3   13.5   13.5   13.9  1018.2  0.00   0.0    64     2.75    109     0.0  0.00   0.0   0.084   0.000   29.4    25    0.08   702    1    100.0   30 
15/08/18  4:30p   14.1   14.3   13.9    60    6.5   0.0   NNW  0.00  16.1     W   14.1   13.4   13.4   12.6  1019.1  0.00   0.0    63     2.71    190     0.0  0.00   0.0   0.088   0.000   29.1    25    0.00   700    1    100.0   30 
15/08/18  5:00p   13.9   14.2   13.9    60    6.2   3.2   WSW  1.61  25.7     W   13.9   13.2   13.2   12.6  1019.3  0.00   0.0    81     3.48    162     0.0  0.00   0.0   0.093   0.000   28.7    26    0.05   700    1    100.0   30 
15/08/18  5:30p   13.8   13.9   13.8    59    6.0   0.0    NW  0.00  16.1   WNW   13.8   13.1   13.1   11.6  1019.7  0.00   0.0    13     0.56     26     0.0  0.00   0.0   0.094   0.000   28.4    26    0.00   700    1    100.0   30 
15/08/18  6:00p   13.8   13.8   13.7    58    5.7   1.6   WSW  0.80  17.7   WSW   13.8   13.1   13.1   11.4  1020.2  0.00   0.0     0     0.00      0     0.0  0.00   0.0   0.094   0.000   28.6    26    0.03   701    1    100.0   30 
15/08/18  6:30p   13.4   13.8   13.4    59    5.6   3.2     W  1.61  22.5     W   13.4   12.7   12.7   11.0  1020.7  0.00   0.0     0     0.00      0     0.0  0.00   0.0   0.102   0.000   28.7    26    0.00   700    1    100.0   30 
15/08/18  7:00p   13.0   13.4   13.0    59    5.2   1.6     W  0.80  17.7     W   13.0   12.3   12.3   10.6  1021.2  0.00   0.0     0     0.00      0     0.0  0.00   0.0   0.111   0.000   28.6    26    0.05   700    1    100.0   30 
15/08/18  7:30p   11.8   13.0   11.8    71    6.7   1.6   WSW  0.80  22.5   WNW   11.8   11.4   11.4    9.8  1021.9  0.25   0.0     0     0.00      0     0.0  0.00   0.0   0.135   0.000   28.5    26    0.00   702    1    100.0   30 
15/08/18  8:00p   10.5   11.8   10.5    75    6.3   0.0   WSW  0.00  14.5     W   10.5   10.3   10.3    8.7  1022.1  0.25   0.0     0     0.00      0     0.0  0.00   0.0   0.163   0.000   28.3    26    0.03   701    1    100.0   30 
15/08/18  8:30p   10.1   10.5   10.1    75    5.9   0.0     W  0.00  11.3     W   10.1   10.0   10.0    8.3  1022.3  0.00   0.0     0     0.00      0     0.0  0.00   0.0   0.171   0.000   28.2    27    0.00   699    1    100.0   30 
15/08/18  9:00p   10.2   10.2   10.0    76    6.1   0.0    NW  0.00   6.4    NW   10.2   10.1   10.1    8.4  1022.0  0.00   0.0     0     0.00      0     0.0  0.00   0.0   0.170   0.000   27.9    27    0.03   701    1    100.0   30 
15/08/18  9:30p   10.8   10.8   10.2    70    5.6   0.0   NNW  0.00  12.9     W   10.8   10.6   10.6    8.9  1022.4  0.00   0.0     0     0.00      0     0.0  0.00   0.0   0.156   0.000   27.8    27    0.00   702    1    100.0   30 
15/08/18 10:00p   11.0   11.1   10.8    68    5.3   1.6   NNW  0.80  22.5     N   11.0   10.6   10.6    8.9  1022.7  0.00   0.0     0     0.00      0     0.0  0.00   0.0   0.153   0.000   27.6    27    0.03   702    1    100.0   30 
15/08/18 10:30p   10.3   11.0   10.3    70    5.0   0.0    NW  0.00  14.5   WSW   10.3   10.0   10.0    8.3  1022.8  0.00   0.0     0     0.00      0     0.0  0.00   0.0   0.168   0.000   27.3    27    0.00   700    1    100.0   30 
15/08/18 11:00p    9.8   10.3    9.8    72    5.0   0.0   ---  0.00   0.0   ---    9.8    9.6    9.6    7.9  1023.1  0.00   0.0     0     0.00      0     0.0  0.00   0.0   0.178   0.000   27.1    27    0.03   699    1    100.0   30 
15/08/18 11:30p    9.4    9.8    9.3    73    4.8   0.0    NW  0.00   6.4    NW    9.4    9.2    9.2    7.5  1023.0  0.00   0.0     0     0.00      0     0.0  0.00   0.0   0.186   0.000   26.9    27    0.00   700    1    100.0   30 
16/08/18 12:00a    8.6    9.4    8.6    75    4.4   0.0   ---  0.00   0.0   ---    8.6    8.4    8.4    6.7  1023.6  0.00   0.0     0     0.00      0     0.0  0.00   0.0   0.204   0.000   26.6    27    0.03   702    1    100.0   30 
16/08/18 12:30a    7.7    8.6    7.7    79    4.3   0.0   ---  0.00   0.0   ---    7.7    7.6    7.6    5.8  1023.7  0.00   0.0     0     0.00      0     0.0  0.00   0.0   0.222   0.000   26.4    27    0.00   702    1    100.0   30 
16/08/18  1:00a    8.2    8.2    7.6    79    4.8   0.0   ---  0.00   0.0   ---    8.2    8.1    8.1    6.4  1023.7  0.00   0.0     0     0.00      0     0.0  0.00   0.0   0.211   0.000   26.2    28    0.03   699    1    100.0   30 
16/08/18  1:30a    8.3    8.3    8.1    78    4.7   0.0    NW  0.00   3.2    NW    8.3    8.2    8.2    6.4  1023.8  0.00   0.0     0     0.00      0     0.0  0.00   0.0   0.209   0.000   26.0    28    0.00   703    1    100.0   30 
16/08/18  2:00a    7.8    8.3    7.8    78    4.2   0.0   ---  0.00   0.0   ---    7.8    7.7    7.7    5.9  1023.7  0.00   0.0     0     0.00      0     0.0  0.00   0.0   0.219   0.000   25.8    28    0.03   700    1    100.0   30 
16/08/18  2:30a    6.7    7.8    6.7    81    3.6   0.0   ---  0.00   0.0   ---    6.7    6.6    6.6    4.8  1023.8  0.00   0.0     0     0.00      0     0.0  0.00   0.0   0.243   0.000   25.7    28    0.00   701    1    100.0   30 
16/08/18  3:00a    5.9    6.7    5.9    84    3.4   0.0   ---  0.00   0.0   ---    5.9    5.8    5.8    4.1  1023.7  0.00   0.0     0     0.00      0     0.0  0.00   0.0   0.258   0.000   25.5    28    0.00   701    1    100.0   30 
16/08/18  3:30a    5.7    5.9    5.6    87    3.7   0.0   ---  0.00   0.0   ---    5.7    5.6    5.6    3.8  1023.8  0.00   0.0     0     0.00      0     0.0  0.00   0.0   0.264   0.000   25.3    28    0.00   701    1    100.0   30 
16/08/18  4:00a    6.3    6.3    5.7    85    3.9   0.0   ---  0.00   0.0   ---    6.3    6.2    6.2    4.5  1023.9  0.00   0.0     0     0.00      0     0.0  0.00   0.0   0.251   0.000   25.0    28    0.00   702    1    100.0   30 
16/08/18  4:30a    6.1    6.3    6.1    85    3.7   0.0   ---  0.00   0.0   ---    6.1    6.0    6.0    4.2  1024.2  0.00   0.0     0     0.00      0     0.0  0.00   0.0   0.256   0.000   24.9    28    0.00   701    1    100.0   30 
16/08/18  5:00a    6.2    6.3    6.1    84    3.7   0.0    NW  0.00   3.2    NW    6.2    6.2    6.2    4.4  1024.3  0.00   0.0     0     0.00      0     0.0  0.00   0.0   0.252   0.000   24.7    28    0.00   701    1    100.0   30 
16/08/18  5:30a    5.7    6.2    5.7    85    3.4   0.0   ---  0.00   0.0   ---    5.7    5.6    5.6    3.8  1024.7  0.00   0.0     0     0.00      0     0.0  0.00   0.0   0.263   0.000   24.6    28    0.00   699    1    100.0   30 
16/08/18  6:00a    5.0    5.7    5.0    87    3.0   0.0   ---  0.00   0.0   ---    5.0    4.9    4.9    3.1  1024.9  0.00   0.0     0     0.00      0     0.0  0.00   0.0   0.278   0.000   24.5    28    0.00   701    1    100.0   30 
16/08/18  6:30a    4.4    5.0    4.4    88    2.6   0.0   ---  0.00   0.0   ---    4.4    4.3    4.3    2.6  1025.1  0.00   0.0     0     0.00      0     0.0  0.00   0.0   0.291   0.000   24.3    28    0.00   702    1    100.0   30 
16/08/18  7:00a    4.8    4.8    4.2    90    3.3   0.0    NW  0.00   3.2    NW    4.8    4.7    4.7    2.9  1025.6  0.00   0.0     0     0.00      0     0.0  0.00   0.0   0.282   0.000   24.1    28    0.00   701    1    100.0   30